Wetterdaten: Donnerstag, 14.02.2019
Datum Zeit Temp. Aussen Temp. o. S. +5cm Feuchte Auss Luftdruck Regen Sonnenschein Regendauer Solar Windben Empfang
14.02.2019 00:00 3,0 C 2,2 C 1,7 C 89 % 1033,1 hPa 0,0 l/m 0 min 0 min 0 W/m 9,7 km/h (2 Bft) 95,65 %
14.02.2019 00:02 3,0 C 2,2 C 1,7 C 89 % 1033,1 hPa 0,0 l/m 0 min 0 min 0 W/m 6,4 km/h (2 Bft) 95,24 %
14.02.2019 00:04 2,9 C 2,2 C 1,7 C 89 % 1033,2 hPa 0,0 l/m 0 min 0 min 0 W/m 6,4 km/h (2 Bft) 95,74 %
14.02.2019 00:08 2,9 C 2,2 C 1,7 C 89 % 1033,2 hPa 0,0 l/m 0 min 0 min 0 W/m 6,4 km/h (2 Bft) 97,56 %
14.02.2019 00:10 2,9 C 2,2 C 1,1 C 89 % 1033,2 hPa 0,0 l/m 0 min 0 min 0 W/m 6,4 km/h (2 Bft) 97,87 %
14.02.2019 00:12 2,9 C 2,2 C 1,1 C 89 % 1033,2 hPa 0,0 l/m 0 min 0 min 0 W/m 3,2 km/h (1 Bft) 97,87 %
14.02.2019 00:14 2,9 C 2,2 C 1,1 C 89 % 1033,2 hPa 0,0 l/m 0 min 0 min 0 W/m 6,4 km/h (2 Bft) 97,87 %
14.02.2019 00:16 2,8 C 2,2 C 1,1 C 89 % 1033,2 hPa 0,0 l/m 0 min 0 min 0 W/m 6,4 km/h (2 Bft) 95,65 %
14.02.2019 00:18 2,8 C 1,7 C 1,1 C 89 % 1033,2 hPa 0,0 l/m 0 min 0 min 0 W/m 3,2 km/h (1 Bft) 97,87 %
14.02.2019 00:20 2,8 C 1,7 C 1,1 C 89 % 1033,2 hPa 0,0 l/m 0 min 0 min 0 W/m 0,0 km/h (0 Bft) 97,87 %
14.02.2019 00:22 2,8 C 1,7 C 1,1 C 90 % 1033,2 hPa 0,0 l/m 0 min 0 min 0 W/m 3,2 km/h (1 Bft) 93,62 %
14.02.2019 00:24 2,8 C 1,7 C 1,1 C 89 % 1033,2 hPa 0,0 l/m 0 min 0 min 0 W/m 3,2 km/h (1 Bft) 95,74 %
14.02.2019 00:26 2,8 C 1,7 C 1,1 C 89 % 1033,2 hPa 0,0 l/m 0 min 0 min 0 W/m 6,4 km/h (2 Bft) 97,87 %
14.02.2019 00:28 2,7 C 1,7 C 1,1 C 89 % 1033,2 hPa 0,0 l/m 0 min 0 min 0 W/m 6,4 km/h (2 Bft) 95,65 %
14.02.2019 00:30 2,7 C 1,7 C 1,1 C 89 % 1033,2 hPa 0,0 l/m 0 min 0 min 0 W/m 3,2 km/h (1 Bft) 97,87 %
14.02.2019 00:32 2,7 C 1,7 C 1,1 C 89 % 1033,2 hPa 0,0 l/m 0 min 0 min 0 W/m 3,2 km/h (1 Bft) 97,87 %
14.02.2019 00:34 2,7 C 1,7 C 1,1 C 89 % 1033,3 hPa 0,0 l/m 0 min 0 min 0 W/m 3,2 km/h (1 Bft) 95,74 %
14.02.2019 00:38 2,7 C 1,7 C 1,1 C 90 % 1033,4 hPa 0,0 l/m 0 min 0 min 0 W/m 6,4 km/h (2 Bft) 94,95 %
14.02.2019 00:40 2,6 C 1,7 C 1,1 C 90 % 1033,4 hPa 0,0 l/m 0 min 0 min 0 W/m 6,4 km/h (2 Bft) 100,00 %
14.02.2019 00:42 2,6 C 1,7 C 1,1 C 90 % 1033,4 hPa 0,0 l/m 0 min 0 min 0 W/m 6,4 km/h (2 Bft) 100,00 %
14.02.2019 00:44 2,6 C 1,7 C 1,1 C 90 % 1033,4 hPa 0,0 l/m 0 min 0 min 0 W/m 6,4 km/h (2 Bft) 95,74 %
14.02.2019 00:46 2,6 C 1,7 C 1,1 C 90 % 1033,4 hPa 0,0 l/m 0 min 0 min 0 W/m 6,4 km/h (2 Bft) 97,87 %
14.02.2019 00:48 2,6 C 1,7 C 1,1 C 90 % 1033,4 hPa 0,0 l/m 0 min 0 min 0 W/m 6,4 km/h (2 Bft) 97,87 %
14.02.2019 00:50 2,5 C 1,7 C 1,1 C 90 % 1033,4 hPa 0,0 l/m 0 min 0 min 0 W/m 6,4 km/h (2 Bft) 97,83 %
14.02.2019 00:52 2,5 C 1,7 C 1,1 C 90 % 1033,3 hPa 0,0 l/m 0 min 0 min 0 W/m 6,4 km/h (2 Bft) 95,74 %
14.02.2019 00:54 2,4 C 1,7 C 1,1 C 90 % 1033,4 hPa 0,0 l/m 0 min 0 min 0 W/m 6,4 km/h (2 Bft) 97,87 %
14.02.2019 00:56 2,4 C 1,7 C 1,1 C 90 % 1033,3 hPa 0,0 l/m 0 min 0 min 0 W/m 9,7 km/h (2 Bft) 95,74 %
14.02.2019 00:58 2,4 C 1,7 C 1,1 C 90 % 1033,4 hPa 0,0 l/m 0 min 0 min 0 W/m 9,7 km/h (2 Bft) 95,74 %
14.02.2019 01:00 2,4 C 1,7 C 1,1 C 90 % 1033,3 hPa 0,0 l/m 0 min 0 min 0 W/m 6,4 km/h (2 Bft) 95,74 %
14.02.2019 01:02 2,4 C 1,7 C 1,1 C 90 % 1033,3 hPa 0,0 l/m 0 min 0 min 0 W/m 6,4 km/h (2 Bft) 91,30 %
14.02.2019 01:04 2,4 C 1,7 C 1,1 C 90 % 1033,3 hPa 0,0 l/m 0 min 0 min 0 W/m 6,4 km/h (2 Bft) 95,74 %
14.02.2019 01:06 2,3 C 1,7 C 1,1 C 90 % 1033,3 hPa 0,0 l/m 0 min 0 min 0 W/m 9,7 km/h (2 Bft) 95,74 %
14.02.2019 01:08 2,3 C 1,7 C 1,1 C 90 % 1033,3 hPa 0,0 l/m 0 min 0 min 0 W/m 9,7 km/h (2 Bft) 93,62 %
14.02.2019 01:10 2,3 C 1,7 C 1,1 C 90 % 1033,3 hPa 0,0 l/m 0 min 0 min 0 W/m 12,9 km/h (3 Bft) 95,74 %
14.02.2019 01:12 2,3 C 1,7 C 1,1 C 90 % 1033,3 hPa 0,0 l/m 0 min 0 min 0 W/m 9,7 km/h (2 Bft) 95,74 %
14.02.2019 01:14 2,3 C 1,7 C 1,1 C 91 % 1033,2 hPa 0,0 l/m 0 min 0 min 0 W/m 9,7 km/h (2 Bft) 95,65 %
14.02.2019 01:16 2,3 C 1,7 C 1,1 C 91 % 1033,4 hPa 0,0 l/m 0 min 0 min 0 W/m 6,4 km/h (2 Bft) 95,74 %
14.02.2019 01:18 2,3 C 1,7 C 1,1 C 91 % 1033,3 hPa 0,0 l/m 0 min 0 min 0 W/m 9,7 km/h (2 Bft) 95,74 %
14.02.2019 01:20 2,3 C 1,7 C 1,1 C 91 % 1033,3 hPa 0,0 l/m 0 min 0 min 0 W/m 9,7 km/h (2 Bft) 95,74 %
14.02.2019 01:22 2,2 C 1,7 C 1,1 C 91 % 1033,2 hPa 0,0 l/m 0 min 0 min 0 W/m 9,7 km/h (2 Bft) 95,74 %
14.02.2019 01:24 2,2 C 1,7 C 1,1 C 91 % 1033,2 hPa 0,0 l/m 0 min 0 min 0 W/m 12,9 km/h (3 Bft) 97,83 %
14.02.2019 01:26 2,2 C 1,7 C 1,1 C 91 % 1033,2 hPa 0,0 l/m 0 min 0 min 0 W/m 6,4 km/h (2 Bft) 95,74 %
14.02.2019 01:28 2,2 C 1,7 C 1,1 C 91 % 1033,2 hPa 0,0 l/m 0 min 0 min 0 W/m 6,4 km/h (2 Bft) 97,87 %
14.02.2019 01:30 2,2 C 1,7 C 1,1 C 91 % 1033,2 hPa 0,0 l/m 0 min 0 min 0 W/m 9,7 km/h (2 Bft) 97,87 %
14.02.2019 01:32 2,2 C 1,7 C 1,1 C 91 % 1033,2 hPa 0,0 l/m 0 min 0 min 0 W/m 6,4 km/h (2 Bft) 97,87 %
14.02.2019 01:34 2,2 C 1,7 C 1,1 C 91 % 1033,3 hPa 0,0 l/m 0 min 0 min 0 W/m 6,4 km/h (2 Bft) 100,00 %
14.02.2019 01:36 2,2 C 1,7 C 1,1 C 91 % 1033,3 hPa 0,0 l/m 0 min 0 min 0 W/m 6,4 km/h (2 Bft) 97,83 %
14.02.2019 01:38 2,2 C 1,7 C 1,1 C 91 % 1033,2 hPa 0,0 l/m 0 min 0 min 0 W/m 6,4 km/h (2 Bft) 97,87 %
14.02.2019 01:40 2,2 C 1,7 C 0,6 C 91 % 1033,2 hPa 0,0 l/m 0 min 0 min 0 W/m 6,4 km/h (2 Bft) 97,87 %
14.02.2019 01:42 2,2 C 1,7 C 0,6 C 91 % 1033,3 hPa 0,0 l/m 0 min 0 min 0 W/m 6,4 km/h (2 Bft) 95,74 %
14.02.2019 01:44 2,2 C 1,7 C 0,6 C 91 % 1033,2 hPa 0,0 l/m 0 min 0 min 0 W/m 9,7 km/h (2 Bft) 97,87 %
14.02.2019 01:46 2,1 C 1,7 C 0,6 C 91 % 1033,3 hPa 0,0 l/m 0 min 0 min 0 W/m 12,9 km/h (3 Bft) 97,87 %
14.02.2019 01:48 2,1 C 1,7 C 0,6 C 91 % 1033,3 hPa 0,0 l/m 0 min 0 min 0 W/m 12,9 km/h (3 Bft) 97,83 %
14.02.2019 01:50 2,1 C 1,1 C 0,6 C 91 % 1033,3 hPa 0,0 l/m 0 min 0 min 0 W/m 9,7 km/h (2 Bft) 95,74 %
14.02.2019 01:52 2,1 C 1,1 C 0,6 C 91 % 1033,3 hPa 0,0 l/m 0 min 0 min 0 W/m 9,7 km/h (2 Bft) 97,87 %
14.02.2019 01:54 2,1 C 1,1 C 0,6 C 91 % 1033,3 hPa 0,0 l/m 0 min 0 min 0 W/m 6,4 km/h (2 Bft) 97,87 %
14.02.2019 01:56 2,0 C 1,1 C 0,6 C 91 % 1033,3 hPa 0,0 l/m 0 min 0 min 0 W/m 6,4 km/h (2 Bft) 95,74 %
14.02.2019 01:58 2,0 C 1,1 C 0,6 C 91 % 1033,3 hPa 0,0 l/m 0 min 0 min 0 W/m 9,7 km/h (2 Bft) 97,87 %
14.02.2019 02:00 2,0 C 1,1 C 0,6 C 91 % 1033,3 hPa 0,0 l/m 0 min 0 min 0 W/m 6,4 km/h (2 Bft) 95,65 %
14.02.2019 02:02 1,9 C 1,1 C 0,6 C 91 % 1033,3 hPa 0,0 l/m 0 min 0 min 0 W/m 6,4 km/h (2 Bft) 97,87 %
14.02.2019 02:04 1,9 C 1,1 C 0,6 C 91 % 1033,3 hPa 0,0 l/m 0 min 0 min 0 W/m 6,4 km/h (2 Bft) 100,00 %
14.02.2019 02:06 1,9 C 1,1 C 0,6 C 91 % 1033,3 hPa 0,0 l/m 0 min 0 min 0 W/m 6,4 km/h (2 Bft) 100,00 %
14.02.2019 02:08 1,9 C 1,1 C 0,6 C 91 % 1033,2 hPa 0,0 l/m 0 min 0 min 0 W/m 9,7 km/h (2 Bft) 95,74 %
14.02.2019 02:10 1,9 C 1,1 C 0,6 C 91 % 1033,2 hPa 0,0 l/m 0 min 0 min 0 W/m 9,7 km/h (2 Bft) 100,00 %
14.02.2019 02:12 1,9 C 1,1 C 0,6 C 91 % 1033,2 hPa 0,0 l/m 0 min 0 min 0 W/m 9,7 km/h (2 Bft) 95,65 %
14.02.2019 02:14 1,9 C 1,1 C 0,6 C 91 % 1033,2 hPa 0,0 l/m 0 min 0 min 0 W/m 9,7 km/h (2 Bft) 97,87 %
14.02.2019 02:16 1,9 C 1,1 C 0,6 C 91 % 1033,2 hPa 0,0 l/m 0 min 0 min 0 W/m 9,7 km/h (2 Bft) 100,00 %
14.02.2019 02:18 1,8 C 1,1 C 0,6 C 91 % 1033,2 hPa 0,0 l/m 0 min 0 min 0 W/m 6,4 km/h (2 Bft) 100,00 %
14.02.2019 02:20 1,8 C 1,1 C 0,6 C 91 % 1033,2 hPa 0,0 l/m 0 min 0 min 0 W/m 12,9 km/h (3 Bft) 100,00 %
14.02.2019 02:22 1,8 C 1,1 C 0,6 C 91 % 1033,2 hPa 0,0 l/m 0 min 0 min 0 W/m 9,7 km/h (2 Bft) 97,87 %
14.02.2019 02:24 1,8 C 1,1 C 0,6 C 92 % 1033,2 hPa 0,0 l/m 0 min 0 min 0 W/m 9,7 km/h (2 Bft) 100,00 %
14.02.2019 02:26 1,8 C 1,1 C 0,6 C 92 % 1033,1 hPa 0,0 l/m 0 min 0 min 0 W/m 16,1 km/h (3 Bft) 97,87 %
14.02.2019 02:28 1,8 C 1,1 C 0,6 C 92 % 1033,2 hPa 0,0 l/m 0 min 0 min 0 W/m 9,7 km/h (2 Bft) 100,00 %
14.02.2019 02:30 1,8 C 1,1 C 0,6 C 92 % 1033,1 hPa 0,0 l/m 0 min 0 min 0 W/m 12,9 km/h (3 Bft) 97,87 %
14.02.2019 02:32 1,8 C 1,1 C 0,6 C 92 % 1033,2 hPa 0,0 l/m 0 min 0 min 0 W/m 9,7 km/h (2 Bft) 100,00 %
14.02.2019 02:34 1,8 C 1,1 C 0,6 C 92 % 1033,2 hPa 0,0 l/m 0 min 0 min 0 W/m 12,9 km/h (3 Bft) 100,00 %
14.02.2019 02:36 1,8 C 1,1 C 0,6 C 92 % 1033,2 hPa 0,0 l/m 0 min 0 min 0 W/m 12,9 km/h (3 Bft) 97,87 %
14.02.2019 02:38 1,8 C 1,1 C 0,6 C 92 % 1033,2 hPa 0,0 l/m 0 min 0 min 0 W/m 9,7 km/h (2 Bft) 100,00 %
14.02.2019 02:40 1,8 C 1,1 C 0,6 C 92 % 1033,2 hPa 0,0 l/m 0 min 0 min 0 W/m 9,7 km/h (2 Bft) 95,74 %
14.02.2019 02:42 1,8 C 1,1 C 0,6 C 92 % 1033,2 hPa 0,0 l/m 0 min 0 min 0 W/m 9,7 km/h (2 Bft) 97,87 %
14.02.2019 02:44 1,8 C 1,1 C 0,6 C 92 % 1033,2 hPa 0,0 l/m 0 min 0 min 0 W/m 9,7 km/h (2 Bft) 97,87 %
14.02.2019 02:46 1,8 C 1,1 C 0,6 C 92 % 1033,2 hPa 0,0 l/m 0 min 0 min 0 W/m 12,9 km/h (3 Bft) 97,83 %
14.02.2019 02:48 1,8 C 1,1 C 0,6 C 92 % 1033,3 hPa 0,0 l/m 0 min 0 min 0 W/m 9,7 km/h (2 Bft) 97,87 %
14.02.2019 02:50 1,8 C 1,1 C 0,6 C 92 % 1033,3 hPa 0,0 l/m 0 min 0 min 0 W/m 6,4 km/h (2 Bft) 97,87 %
14.02.2019 02:52 1,8 C 1,1 C 0,6 C 92 % 1033,3 hPa 0,0 l/m 0 min 0 min 0 W/m 9,7 km/h (2 Bft) 93,62 %
14.02.2019 02:54 1,8 C 1,1 C 0,6 C 92 % 1033,3 hPa 0,0 l/m 0 min 0 min 0 W/m 12,9 km/h (3 Bft) 97,87 %
14.02.2019 02:56 1,7 C 1,1 C 0,6 C 92 % 1033,3 hPa 0,0 l/m 0 min 0 min 0 W/m 12,9 km/h (3 Bft) 93,62 %
14.02.2019 02:58 1,7 C 1,1 C 0,6 C 92 % 1033,2 hPa 0,0 l/m 0 min 0 min 0 W/m 9,7 km/h (2 Bft) 97,83 %
14.02.2019 03:00 1,7 C 1,1 C 0,6 C 92 % 1033,2 hPa 0,0 l/m 0 min 0 min 0 W/m 6,4 km/h (2 Bft) 97,87 %
14.02.2019 03:02 1,7 C 1,1 C 0,6 C 92 % 1033,2 hPa 0,0 l/m 0 min 0 min 0 W/m 12,9 km/h (3 Bft) 95,74 %
14.02.2019 03:04 1,7 C 1,1 C 0,6 C 92 % 1033,3 hPa 0,0 l/m 0 min 0 min 0 W/m 9,7 km/h (2 Bft) 97,87 %
14.02.2019 03:06 1,7 C 1,1 C 0,6 C 92 % 1033,2 hPa 0,0 l/m 0 min 0 min 0 W/m 12,9 km/h (3 Bft) 97,87 %
14.02.2019 03:08 1,7 C 1,1 C 0,6 C 92 % 1033,2 hPa 0,0 l/m 0 min 0 min 0 W/m 6,4 km/h (2 Bft) 97,87 %
14.02.2019 03:10 1,7 C 1,1 C 0,6 C 92 % 1033,2 hPa 0,0 l/m 0 min 0 min 0 W/m 9,7 km/h (2 Bft) 95,65 %
14.02.2019 03:12 1,7 C 1,1 C 0,6 C 92 % 1033,2 hPa 0,0 l/m 0 min 0 min 0 W/m 6,4 km/h (2 Bft) 95,74 %
14.02.2019 03:14 1,7 C 1,1 C 0,6 C 92 % 1033,3 hPa 0,0 l/m 0 min 0 min 0 W/m 6,4 km/h (2 Bft) 93,62 %
14.02.2019 03:16 1,7 C 1,1 C 0,6 C 92 % 1033,2 hPa 0,0 l/m 0 min 0 min 0 W/m 9,7 km/h (2 Bft) 93,62 %
14.02.2019 03:18 1,7 C 1,1 C 0,6 C 92 % 1033,2 hPa 0,0 l/m 0 min 0 min 0 W/m 6,4 km/h (2 Bft) 95,74 %
14.02.2019 03:20 1,6 C 1,1 C 0,0 C 92 % 1033,2 hPa 0,0 l/m 0 min 0 min 0 W/m 9,7 km/h (2 Bft) 95,74 %
14.02.2019 03:22 1,6 C 1,1 C 0,6 C 92 % 1033,3 hPa 0,0 l/m 0 min 0 min 0 W/m 12,9 km/h (3 Bft) 93,48 %
14.02.2019 03:24 1,6 C 1,1 C 0,6 C 92 % 1033,2 hPa 0,0 l/m 0 min 0 min 0 W/m 9,7 km/h (2 Bft) 95,74 %
14.02.2019 03:26 1,6 C 1,1 C 0,6 C 92 % 1033,2 hPa 0,0 l/m 0 min 0 min 0 W/m 9,7 km/h (2 Bft) 97,87 %
14.02.2019 03:28 1,6 C 1,1 C 0,6 C 92 % 1033,2 hPa 0,0 l/m 0 min 0 min 0 W/m 9,7 km/h (2 Bft) 93,62 %
14.02.2019 03:30 1,6 C 1,1 C 0,0 C 92 % 1033,1 hPa 0,0 l/m 0 min 0 min 0 W/m 9,7 km/h (2 Bft) 95,74 %
14.02.2019 03:32 1,6 C 1,1 C 0,0 C 92 % 1033,1 hPa 0,0 l/m 0 min 0 min 0 W/m 12,9 km/h (3 Bft) 95,65 %
14.02.2019 03:34 1,6 C 1,1 C 0,0 C 92 % 1033,2 hPa 0,0 l/m 0 min 0 min 0 W/m 12,9 km/h (3 Bft) 97,87 %
14.02.2019 03:36 1,5 C 1,1 C 0,0 C 92 % 1033,2 hPa 0,0 l/m 0 min 0 min 0 W/m 9,7 km/h (2 Bft) 97,87 %
14.02.2019 03:38 1,5 C 1,1 C 0,0 C 92 % 1033,2 hPa 0,0 l/m 0 min 0 min 0 W/m 12,9 km/h (3 Bft) 97,87 %
14.02.2019 03:40 1,5 C 1,1 C 0,0 C 92 % 1033,2 hPa 0,0 l/m 0 min 0 min 0 W/m 9,7 km/h (2 Bft) 97,87 %
14.02.2019 03:42 1,5 C 1,1 C 0,0 C 92 % 1033,1 hPa 0,0 l/m 0 min 0 min 0 W/m 12,9 km/h (3 Bft) 97,87 %
14.02.2019 03:44 1,5 C 1,1 C 0,0 C 92 % 1033,1 hPa 0,0 l/m 0 min 0 min 0 W/m 16,1 km/h (3 Bft) 97,83 %
14.02.2019 03:46 1,5 C 1,1 C 0,0 C 92 % 1033,1 hPa 0,0 l/m 0 min 0 min 0 W/m 9,7 km/h (2 Bft) 97,87 %
14.02.2019 03:48 1,5 C 1,1 C 0,0 C 92 % 1033,2 hPa 0,0 l/m 0 min 0 min 0 W/m 9,7 km/h (2 Bft) 97,87 %
14.02.2019 03:50 1,4 C 0,6 C 0,0 C 92 % 1033,2 hPa 0,0 l/m 0 min 0 min 0 W/m 9,7 km/h (2 Bft) 97,87 %
14.02.2019 03:52 1,4 C 0,6 C 0,0 C 92 % 1033,1 hPa 0,0 l/m 0 min 0 min 0 W/m 16,1 km/h (3 Bft) 97,87 %
14.02.2019 03:54 1,4 C 0,6 C 0,0 C 92 % 1033,1 hPa 0,0 l/m 0 min 0 min 0 W/m 9,7 km/h (2 Bft) 100,00 %
14.02.2019 03:56 1,4 C 0,6 C 0,0 C 92 % 1033,2 hPa 0,0 l/m 0 min 0 min 0 W/m 12,9 km/h (3 Bft) 100,00 %
14.02.2019 03:58 1,4 C 0,6 C 0,0 C 92 % 1033,1 hPa 0,0 l/m 0 min 0 min 0 W/m 12,9 km/h (3 Bft) 100,00 %
14.02.2019 04:00 1,4 C 0,6 C 0,0 C 92 % 1033,1 hPa 0,0 l/m 0 min 0 min 0 W/m 12,9 km/h (3 Bft) 97,87 %
14.02.2019 04:02 1,4 C 1,1 C 0,0 C 92 % 1033,2 hPa 0,0 l/m 0 min 0 min 0 W/m 12,9 km/h (3 Bft) 100,00 %
14.02.2019 04:04 1,4 C 1,1 C 0,0 C 92 % 1033,2 hPa 0,0 l/m 0 min 0 min 0 W/m 12,9 km/h (3 Bft) 97,87 %
14.02.2019 04:06 1,3 C 0,6 C 0,0 C 92 % 1033,2 hPa 0,0 l/m 0 min 0 min 0 W/m 9,7 km/h (2 Bft) 97,87 %
14.02.2019 04:08 1,3 C 0,6 C 0,0 C 92 % 1033,1 hPa 0,0 l/m 0 min 0 min 0 W/m 9,7 km/h (2 Bft) 100,00 %
14.02.2019 04:10 1,3 C 0,6 C 0,0 C 92 % 1033,1 hPa 0,0 l/m 0 min 0 min 0 W/m 12,9 km/h (3 Bft) 100,00 %
14.02.2019 04:12 1,3 C 0,6 C 0,0 C 92 % 1033,1 hPa 0,0 l/m 0 min 0 min 0 W/m 9,7 km/h (2 Bft) 100,00 %
14.02.2019 04:14 1,3 C 1,1 C 0,0 C 92 % 1033,1 hPa 0,0 l/m 0 min 0 min 0 W/m 16,1 km/h (3 Bft) 100,00 %
14.02.2019 04:16 1,3 C 1,1 C 0,0 C 92 % 1033,2 hPa 0,0 l/m 0 min 0 min 0 W/m 9,7 km/h (2 Bft) 100,00 %
14.02.2019 04:18 1,3 C 0,6 C 0,0 C 92 % 1033,3 hPa 0,0 l/m 0 min 0 min 0 W/m 9,7 km/h (2 Bft) 100,00 %
14.02.2019 04:20 1,3 C 0,6 C 0,0 C 92 % 1033,3 hPa 0,0 l/m 0 min 0 min 0 W/m 9,7 km/h (2 Bft) 100,00 %
14.02.2019 04:22 1,3 C 0,6 C 0,0 C 92 % 1033,3 hPa 0,0 l/m 0 min 0 min 0 W/m 9,7 km/h (2 Bft) 97,87 %
14.02.2019 04:24 1,3 C 0,6 C 0,0 C 92 % 1033,3 hPa 0,0 l/m 0 min 0 min 0 W/m 12,9 km/h (3 Bft) 100,00 %
14.02.2019 04:26 1,3 C 0,6 C 0,0 C 92 % 1033,4 hPa 0,0 l/m 0 min 0 min 0 W/m 9,7 km/h (2 Bft) 97,87 %
14.02.2019 04:28 1,3 C 0,6 C 0,0 C 92 % 1033,4 hPa 0,0 l/m 0 min 0 min 0 W/m 9,7 km/h (2 Bft) 100,00 %
14.02.2019 04:30 1,3 C 0,6 C 0,0 C 92 % 1033,4 hPa 0,0 l/m 0 min 0 min 0 W/m 12,9 km/h (3 Bft) 100,00 %
14.02.2019 04:32 1,3 C 0,6 C 0,0 C 92 % 1033,4 hPa 0,0 l/m 0 min 0 min 0 W/m 12,9 km/h (3 Bft) 100,00 %
14.02.2019 04:34 1,2 C 0,6 C 0,0 C 92 % 1033,5 hPa 0,0 l/m 0 min 0 min 0 W/m 9,7 km/h (2 Bft) 100,00 %
14.02.2019 04:36 1,2 C 0,6 C 0,0 C 92 % 1033,5 hPa 0,0 l/m 0 min 0 min 0 W/m 9,7 km/h (2 Bft) 100,00 %
14.02.2019 04:38 1,2 C 0,6 C 0,0 C 92 % 1033,4 hPa 0,0 l/m 0 min 0 min 0 W/m 9,7 km/h (2 Bft) 100,00 %
14.02.2019 04:40 1,2 C 0,6 C 0,0 C 92 % 1033,3 hPa 0,0 l/m 0 min 0 min 0 W/m 9,7 km/h (2 Bft) 100,00 %
14.02.2019 04:42 1,2 C 0,6 C 0,0 C 92 % 1033,3 hPa 0,0 l/m 0 min 0 min 0 W/m 12,9 km/h (3 Bft) 100,00 %
14.02.2019 04:44 1,2 C 0,6 C 0,0 C 92 % 1033,3 hPa 0,0 l/m 0 min 0 min 0 W/m 9,7 km/h (2 Bft) 97,87 %
14.02.2019 04:46 1,2 C 0,6 C 0,0 C 92 % 1033,3 hPa 0,0 l/m 0 min 0 min 0 W/m 6,4 km/h (2 Bft) 97,87 %
14.02.2019 04:48 1,2 C 0,6 C 0,0 C 92 % 1033,3 hPa 0,0 l/m 0 min 0 min 0 W/m 9,7 km/h (2 Bft) 97,87 %
14.02.2019 04:50 1,2 C 0,6 C 0,0 C 92 % 1033,3 hPa 0,0 l/m 0 min 0 min 0 W/m 9,7 km/h (2 Bft) 97,87 %
14.02.2019 04:52 1,1 C 0,6 C 0,0 C 92 % 1033,4 hPa 0,0 l/m 0 min 0 min 0 W/m 12,9 km/h (3 Bft) 97,87 %
14.02.2019 04:54 1,1 C 0,6 C 0,0 C 92 % 1033,3 hPa 0,0 l/m 0 min 0 min 0 W/m 12,9 km/h (3 Bft) 97,83 %
14.02.2019 04:56 1,1 C 0,6 C 0,0 C 92 % 1033,3 hPa 0,0 l/m 0 min 0 min 0 W/m 9,7 km/h (2 Bft) 97,87 %
14.02.2019 04:58 1,1 C 0,6 C 0,0 C 92 % 1033,3 hPa 0,0 l/m 0 min 0 min 0 W/m 12,9 km/h (3 Bft) 97,87 %
14.02.2019 05:00 1,1 C 0,6 C 0,0 C 92 % 1033,3 hPa 0,0 l/m 0 min 0 min 0 W/m 12,9 km/h (3 Bft) 97,87 %
14.02.2019 05:02 1,1 C 0,6 C 0,0 C 92 % 1033,2 hPa 0,0 l/m 0 min 0 min 0 W/m 6,4 km/h (2 Bft) 97,87 %
14.02.2019 05:04 1,1 C 0,6 C 0,0 C 92 % 1033,2 hPa 0,0 l/m 0 min 0 min 0 W/m 9,7 km/h (2 Bft) 95,74 %
14.02.2019 05:05 1,1 C 0,6 C 0,0 C 92 % 1033,2 hPa 0,0 l/m 0 min 0 min 0 W/m 9,7 km/h (2 Bft) 100,00 %
14.02.2019 05:10 1,1 C 0,6 C 0,0 C 92 % 1033,4 hPa 0,0 l/m 0 min 0 min 0 W/m 12,9 km/h (3 Bft) 100,00 %
14.02.2019 05:12 1,1 C 0,6 C 0,0 C 92 % 1033,3 hPa 0,0 l/m 0 min 0 min 0 W/m 9,7 km/h (2 Bft) 100,00 %
14.02.2019 05:14 1,1 C 0,6 C 0,0 C 92 % 1033,2 hPa 0,0 l/m 0 min 0 min 0 W/m 9,7 km/h (2 Bft) 100,00 %
14.02.2019 05:19 1,1 C 0,6 C 0,0 C 92 % 1033,3 hPa 0,0 l/m 0 min 0 min 0 W/m 12,9 km/h (3 Bft) 98,31 %
14.02.2019 05:20 1,1 C 0,6 C 0,0 C 92 % 1033,3 hPa 0,0 l/m 0 min 0 min 0 W/m 9,7 km/h (2 Bft) 95,65 %
14.02.2019 05:22 1,1 C 0,6 C 0,0 C 92 % 1033,3 hPa 0,0 l/m 0 min 0 min 0 W/m 9,7 km/h (2 Bft) 95,74 %
14.02.2019 05:24 1,1 C 0,6 C 0,0 C 92 % 1033,3 hPa 0,0 l/m 0 min 0 min 0 W/m 6,4 km/h (2 Bft) 97,87 %
14.02.2019 05:26 1,1 C 0,6 C 0,0 C 92 % 1033,3 hPa 0,0 l/m 0 min 0 min 0 W/m 9,7 km/h (2 Bft) 93,62 %
14.02.2019 05:28 1,1 C 0,6 C 0,0 C 92 % 1033,3 hPa 0,0 l/m 0 min 0 min 0 W/m 6,4 km/h (2 Bft) 93,62 %
14.02.2019 05:30 1,1 C 0,6 C 0,0 C 92 % 1033,4 hPa 0,0 l/m 0 min 0 min 0 W/m 9,7 km/h (2 Bft) 91,30 %
14.02.2019 05:32 1,1 C 0,6 C 0,0 C 92 % 1033,3 hPa 0,0 l/m 0 min 0 min 0 W/m 9,7 km/h (2 Bft) 91,49 %
14.02.2019 05:34 1,1 C 0,6 C 0,0 C 92 % 1033,4 hPa 0,0 l/m 0 min 0 min 0 W/m 6,4 km/h (2 Bft) 95,74 %
14.02.2019 05:36 1,0 C 0,6 C 0,0 C 92 % 1033,4 hPa 0,0 l/m 0 min 0 min 0 W/m 9,7 km/h (2 Bft) 95,74 %
14.02.2019 05:38 1,0 C 0,6 C 0,0 C 92 % 1033,4 hPa 0,0 l/m 0 min 0 min 0 W/m 9,7 km/h (2 Bft) 93,62 %
14.02.2019 05:40 1,0 C 0,6 C -0,6 C 92 % 1033,4 hPa 0,0 l/m 0 min 0 min 0 W/m 9,7 km/h (2 Bft) 93,48 %
14.02.2019 05:42 1,0 C 0,6 C -0,6 C 92 % 1033,4 hPa 0,0 l/m 0 min 0 min 0 W/m 9,7 km/h (2 Bft) 93,62 %
14.02.2019 05:44 1,0 C 0,6 C -0,6 C 92 % 1033,4 hPa 0,0 l/m 0 min 0 min 0 W/m 9,7 km/h (2 Bft) 93,62 %
14.02.2019 05:46 0,9 C 0,6 C -0,6 C 92 % 1033,4 hPa 0,0 l/m 0 min 0 min 0 W/m 12,9 km/h (3 Bft) 93,62 %
14.02.2019 05:48 0,9 C 0,6 C -0,6 C 92 % 1033,4 hPa 0,0 l/m 0 min 0 min 0 W/m 12,9 km/h (3 Bft) 93,62 %
14.02.2019 05:50 0,9 C 0,6 C 0,0 C 92 % 1033,3 hPa 0,0 l/m 0 min 0 min 0 W/m 12,9 km/h (3 Bft) 93,62 %
14.02.2019 05:52 0,9 C 0,6 C 0,0 C 92 % 1033,4 hPa 0,0 l/m 0 min 0 min 0 W/m 9,7 km/h (2 Bft) 95,65 %
14.02.2019 05:54 0,9 C 0,6 C -0,6 C 92 % 1033,5 hPa 0,0 l/m 0 min 0 min 0 W/m 16,1 km/h (3 Bft) 93,62 %
14.02.2019 05:56 0,9 C 0,0 C -0,6 C 92 % 1033,4 hPa 0,0 l/m 0 min 0 min 0 W/m 9,7 km/h (2 Bft) 93,62 %
14.02.2019 05:58 0,9 C 0,0 C -0,6 C 92 % 1033,4 hPa 0,0 l/m 0 min 0 min 0 W/m 6,4 km/h (2 Bft) 95,74 %
14.02.2019 06:00 0,9 C 0,0 C -0,6 C 92 % 1033,4 hPa 0,0 l/m 0 min 0 min 0 W/m 9,7 km/h (2 Bft) 95,74 %
14.02.2019 06:02 0,8 C 0,0 C -0,6 C 92 % 1033,4 hPa 0,0 l/m 0 min 0 min 0 W/m 9,7 km/h (2 Bft) 93,62 %
14.02.2019 06:04 0,8 C 0,0 C -0,6 C 92 % 1033,5 hPa 0,0 l/m 0 min 0 min 0 W/m 9,7 km/h (2 Bft) 89,13 %
14.02.2019 06:08 0,8 C 0,0 C -0,6 C 92 % 1033,6 hPa 0,0 l/m 0 min 0 min 0 W/m 12,9 km/h (3 Bft) 95,74 %
14.02.2019 06:10 0,8 C 0,6 C -0,6 C 92 % 1033,6 hPa 0,0 l/m 0 min 0 min 0 W/m 12,9 km/h (3 Bft) 95,74 %
14.02.2019 06:12 0,8 C 0,6 C -0,6 C 92 % 1033,6 hPa 0,0 l/m 0 min 0 min 0 W/m 12,9 km/h (3 Bft) 93,62 %
14.02.2019 06:14 0,8 C 0,6 C -0,6 C 92 % 1033,4 hPa 0,0 l/m 0 min 0 min 0 W/m 12,9 km/h (3 Bft) 97,87 %
14.02.2019 06:16 0,8 C 0,6 C -0,6 C 92 % 1033,5 hPa 0,0 l/m 0 min 0 min 0 W/m 16,1 km/h (3 Bft) 97,83 %
14.02.2019 06:18 0,8 C 0,6 C -0,6 C 92 % 1033,5 hPa 0,0 l/m 0 min 0 min 0 W/m 12,9 km/h (3 Bft) 97,87 %
14.02.2019 06:20 0,8 C 0,6 C -0,6 C 92 % 1033,5 hPa 0,0 l/m 0 min 0 min 0 W/m 9,7 km/h (2 Bft) 95,74 %
14.02.2019 06:22 0,8 C 0,6 C -0,6 C 92 % 1033,5 hPa 0,0 l/m 0 min 0 min 0 W/m 12,9 km/h (3 Bft) 95,74 %
14.02.2019 06:24 0,8 C 0,6 C 0,0 C 92 % 1033,6 hPa 0,0 l/m 0 min 0 min 0 W/m 9,7 km/h (2 Bft) 97,87 %
14.02.2019 06:26 0,8 C 0,6 C 0,0 C 92 % 1033,5 hPa 0,0 l/m 0 min 0 min 0 W/m 12,9 km/h (3 Bft) 100,00 %
14.02.2019 06:28 0,8 C 0,6 C 0,0 C 92 % 1033,6 hPa 0,0 l/m 0 min 0 min 0 W/m 12,9 km/h (3 Bft) 100,00 %
14.02.2019 06:30 0,8 C 0,6 C 0,0 C 92 % 1033,5 hPa 0,0 l/m 0 min 0 min 0 W/m 9,7 km/h (2 Bft) 100,00 %
14.02.2019 06:32 0,8 C 0,6 C -0,6 C 92 % 1033,6 hPa 0,0 l/m 0 min 0 min 0 W/m 12,9 km/h (3 Bft) 100,00 %
14.02.2019 06:34 0,8 C 0,6 C -0,6 C 92 % 1033,6 hPa 0,0 l/m 0 min 0 min 0 W/m 9,7 km/h (2 Bft) 100,00 %
14.02.2019 06:36 0,8 C 0,6 C -0,6 C 92 % 1033,5 hPa 0,0 l/m 0 min 0 min 0 W/m 16,1 km/h (3 Bft) 97,87 %
14.02.2019 06:38 0,8 C 0,6 C -0,6 C 92 % 1033,6 hPa 0,0 l/m 0 min 0 min 0 W/m 12,9 km/h (3 Bft) 100,00 %
14.02.2019 06:40 0,8 C 0,6 C -0,6 C 92 % 1033,6 hPa 0,0 l/m 0 min 0 min 0 W/m 9,7 km/h (2 Bft) 100,00 %
14.02.2019 06:42 0,8 C 0,6 C -0,6 C 92 % 1033,5 hPa 0,0 l/m 0 min 0 min 0 W/m 12,9 km/h (3 Bft) 100,00 %
14.02.2019 06:44 0,7 C 0,0 C -0,6 C 92 % 1033,6 hPa 0,0 l/m 0 min 0 min 0 W/m 9,7 km/h (2 Bft) 100,00 %
14.02.2019 06:46 0,8 C 0,0 C -0,6 C 92 % 1033,5 hPa 0,0 l/m 0 min 0 min 0 W/m 9,7 km/h (2 Bft) 100,00 %
14.02.2019 06:48 0,8 C 0,6 C -0,6 C 92 % 1033,6 hPa 0,0 l/m 0 min 0 min 0 W/m 6,4 km/h (2 Bft) 100,00 %
14.02.2019 06:50 0,8 C 0,0 C -0,6 C 92 % 1033,6 hPa 0,0 l/m 0 min 0 min 0 W/m 9,7 km/h (2 Bft) 97,83 %
14.02.2019 06:52 0,8 C 0,0 C -0,6 C 92 % 1033,6 hPa 0,0 l/m 0 min 0 min 0 W/m 9,7 km/h (2 Bft) 100,00 %
14.02.2019 06:54 0,7 C 0,0 C -0,6 C 92 % 1033,6 hPa 0,0 l/m 0 min 0 min 0 W/m 9,7 km/h (2 Bft) 97,87 %
14.02.2019 06:56 0,7 C 0,0 C -0,6 C 92 % 1033,6 hPa 0,0 l/m 0 min 0 min 0 W/m 6,4 km/h (2 Bft) 100,00 %
14.02.2019 06:58 0,7 C 0,0 C -0,6 C 92 % 1033,6 hPa 0,0 l/m 0 min 0 min 0 W/m 9,7 km/h (2 Bft) 100,00 %
14.02.2019 07:00 0,7 C 0,0 C -0,6 C 92 % 1033,6 hPa 0,0 l/m 0 min 0 min 0 W/m 9,7 km/h (2 Bft) 100,00 %
14.02.2019 07:02 0,7 C 0,0 C -0,6 C 92 % 1033,5 hPa 0,0 l/m 0 min 0 min 0 W/m 6,4 km/h (2 Bft) 95,65 %
14.02.2019 07:04 0,7 C 0,0 C -0,6 C 92 % 1033,6 hPa 0,0 l/m 0 min 0 min 0 W/m 9,7 km/h (2 Bft) 100,00 %
14.02.2019 07:06 0,7 C 0,0 C -0,6 C 92 % 1033,6 hPa 0,0 l/m 0 min 0 min 0 W/m 9,7 km/h (2 Bft) 100,00 %
14.02.2019 07:08 0,7 C 0,0 C -0,6 C 92 % 1033,6 hPa 0,0 l/m 0 min 0 min 0 W/m 12,9 km/h (3 Bft) 97,87 %
14.02.2019 07:10 0,7 C 0,0 C -0,6 C 92 % 1033,6 hPa 0,0 l/m 0 min 0 min 0 W/m 9,7 km/h (2 Bft) 100,00 %
14.02.2019 07:12 0,6 C 0,0 C -0,6 C 92 % 1033,6 hPa 0,0 l/m 0 min 0 min 0 W/m 6,4 km/h (2 Bft) 93,62 %
14.02.2019 07:14 0,6 C 0,0 C -0,6 C 92 % 1033,7 hPa 0,0 l/m 0 min 0 min 0 W/m 9,7 km/h (2 Bft) 78,26 %
14.02.2019 07:16 0,6 C 0,0 C -0,6 C 92 % 1033,7 hPa 0,0 l/m 0 min 0 min 0 W/m 9,7 km/h (2 Bft) 91,49 %
14.02.2019 07:18 0,6 C 0,0 C -0,6 C 92 % 1033,8 hPa 0,0 l/m 0 min 0 min 0 W/m 9,7 km/h (2 Bft) 100,00 %
14.02.2019 07:20 0,6 C 0,0 C -0,6 C 92 % 1033,8 hPa 0,0 l/m 0 min 0 min 0 W/m 9,7 km/h (2 Bft) 100,00 %
14.02.2019 07:22 0,6 C 0,0 C -0,6 C 92 % 1033,8 hPa 0,0 l/m 0 min 0 min 0 W/m 9,7 km/h (2 Bft) 97,87 %
14.02.2019 07:24 0,6 C 0,0 C -0,6 C 92 % 1033,8 hPa 0,0 l/m 0 min 0 min 0 W/m 9,7 km/h (2 Bft) 100,00 %
14.02.2019 07:26 0,6 C 0,0 C -0,6 C 92 % 1033,8 hPa 0,0 l/m 0 min 0 min 0 W/m 9,7 km/h (2 Bft) 100,00 %
14.02.2019 07:28 0,6 C 0,0 C -0,6 C 92 % 1033,7 hPa 0,0 l/m 0 min 0 min 0 W/m 9,7 km/h (2 Bft) 100,00 %
14.02.2019 07:30 0,6 C 0,0 C -0,6 C 92 % 1033,7 hPa 0,0 l/m 0 min 0 min 0 W/m 16,1 km/h (3 Bft) 100,00 %
14.02.2019 07:32 0,6 C 0,0 C -0,6 C 92 % 1033,8 hPa 0,0 l/m 0 min 0 min 0 W/m 9,7 km/h (2 Bft) 100,00 %
14.02.2019 07:34 0,6 C 0,0 C -0,6 C 92 % 1033,8 hPa 0,0 l/m 0 min 0 min 0 W/m 6,4 km/h (2 Bft) 97,87 %
14.02.2019 07:36 0,6 C 0,0 C -0,6 C 92 % 1033,9 hPa 0,0 l/m 0 min 0 min 0 W/m 12,9 km/h (3 Bft) 97,83 %
14.02.2019 07:38 0,6 C 0,0 C -0,6 C 92 % 1033,9 hPa 0,0 l/m 0 min 0 min 0 W/m 9,7 km/h (2 Bft) 100,00 %
14.02.2019 07:40 0,6 C 0,0 C -0,6 C 92 % 1033,9 hPa 0,0 l/m 0 min 0 min 0 W/m 9,7 km/h (2 Bft) 100,00 %
14.02.2019 07:42 0,6 C 0,0 C -0,6 C 92 % 1033,9 hPa 0,0 l/m 0 min 0 min 0 W/m 6,4 km/h (2 Bft) 100,00 %
14.02.2019 07:44 0,6 C 0,0 C -0,6 C 92 % 1034,0 hPa 0,0 l/m 0 min 0 min 0 W/m 9,7 km/h (2 Bft) 100,00 %
14.02.2019 07:46 0,6 C 0,0 C -0,6 C 92 % 1033,9 hPa 0,0 l/m 0 min 0 min 0 W/m 9,7 km/h (2 Bft) 97,87 %
14.02.2019 07:48 0,6 C 0,0 C -0,6 C 92 % 1033,9 hPa 0,0 l/m 0 min 0 min 0 W/m 9,7 km/h (2 Bft) 100,00 %
14.02.2019 07:50 0,6 C 0,0 C -0,6 C 92 % 1033,8 hPa 0,0 l/m 0 min 0 min 0 W/m 12,9 km/h (3 Bft) 100,00 %
14.02.2019 07:52 0,6 C 0,0 C -0,6 C 92 % 1033,9 hPa 0,0 l/m 0 min 0 min 3 W/m 12,9 km/h (3 Bft) 97,87 %
14.02.2019 07:54 0,6 C 0,0 C -0,6 C 92 % 1033,8 hPa 0,0 l/m 0 min 0 min 5 W/m 12,9 km/h (3 Bft) 100,00 %
14.02.2019 07:56 0,6 C 0,0 C -0,6 C 92 % 1033,9 hPa 0,0 l/m 0 min 0 min 5 W/m 12,9 km/h (3 Bft) 97,87 %
14.02.2019 07:58 0,6 C 0,0 C -0,6 C 92 % 1033,9 hPa 0,0 l/m 0 min 0 min 5 W/m 12,9 km/h (3 Bft) 95,74 %
14.02.2019 08:00 0,6 C 0,0 C -0,6 C 92 % 1034,0 hPa 0,0 l/m 0 min 0 min 7 W/m 12,9 km/h (3 Bft) 100,00 %
14.02.2019 08:02 0,6 C 0,0 C -0,6 C 92 % 1034,0 hPa 0,0 l/m 0 min 0 min 7 W/m 16,1 km/h (3 Bft) 97,87 %
14.02.2019 08:04 0,6 C 0,0 C -0,6 C 92 % 1034,1 hPa 0,0 l/m 0 min 0 min 8 W/m 12,9 km/h (3 Bft) 95,74 %
14.02.2019 08:06 0,6 C 0,0 C -0,6 C 92 % 1034,0 hPa 0,0 l/m 0 min 0 min 9 W/m 9,7 km/h (2 Bft) 97,87 %
14.02.2019 08:08 0,6 C 0,0 C -0,6 C 92 % 1034,1 hPa 0,0 l/m 0 min 0 min 10 W/m 9,7 km/h (2 Bft) 95,74 %
14.02.2019 08:10 0,6 C 0,0 C -0,6 C 92 % 1034,1 hPa 0,0 l/m 0 min 0 min 11 W/m 9,7 km/h (2 Bft) 97,87 %
14.02.2019 08:12 0,6 C 0,0 C -0,6 C 92 % 1034,1 hPa 0,0 l/m 0 min 0 min 12 W/m 6,4 km/h (2 Bft) 97,83 %
14.02.2019 08:14 0,6 C 0,0 C -0,6 C 92 % 1034,1 hPa 0,0 l/m 0 min 0 min 12 W/m 16,1 km/h (3 Bft) 97,87 %
14.02.2019 08:16 0,6 C 0,6 C -0,6 C 92 % 1034,2 hPa 0,0 l/m 0 min 0 min 12 W/m 16,1 km/h (3 Bft) 95,74 %
14.02.2019 08:18 0,6 C 0,6 C -0,6 C 92 % 1034,3 hPa 0,0 l/m 0 min 0 min 14 W/m 9,7 km/h (2 Bft) 93,62 %
14.02.2019 08:20 0,6 C 0,6 C -0,6 C 92 % 1034,3 hPa 0,0 l/m 0 min 0 min 14 W/m 9,7 km/h (2 Bft) 95,74 %
14.02.2019 08:22 0,6 C 0,6 C 0,0 C 92 % 1034,3 hPa 0,0 l/m 0 min 0 min 15 W/m 9,7 km/h (2 Bft) 95,74 %
14.02.2019 08:24 0,6 C 0,6 C 0,0 C 92 % 1034,3 hPa 0,0 l/m 0 min 0 min 16 W/m 16,1 km/h (3 Bft) 89,13 %
14.02.2019 08:26 0,6 C 0,6 C 0,0 C 92 % 1034,3 hPa 0,0 l/m 0 min 0 min 16 W/m 9,7 km/h (2 Bft) 93,62 %
14.02.2019 08:28 0,6 C 0,6 C 0,0 C 92 % 1034,4 hPa 0,0 l/m 0 min 0 min 18 W/m 9,7 km/h (2 Bft) 93,62 %
14.02.2019 08:30 0,7 C 0,6 C 0,0 C 92 % 1034,4 hPa 0,0 l/m 0 min 0 min 18 W/m 9,7 km/h (2 Bft) 93,62 %
14.02.2019 08:32 0,7 C 0,6 C 0,0 C 92 % 1034,3 hPa 0,0 l/m 0 min 0 min 18 W/m 12,9 km/h (3 Bft) 91,49 %
14.02.2019 08:34 0,7 C 0,6 C 0,0 C 92 % 1034,4 hPa 0,0 l/m 0 min 0 min 19 W/m 9,7 km/h (2 Bft) 93,48 %
14.02.2019 08:36 0,7 C 0,6 C 0,0 C 92 % 1034,4 hPa 0,0 l/m 0 min 0 min 19 W/m 12,9 km/h (3 Bft) 93,62 %
14.02.2019 08:38 0,8 C 1,1 C 0,0 C 92 % 1034,4 hPa 0,0 l/m 0 min 0 min 19 W/m 12,9 km/h (3 Bft) 91,49 %
14.02.2019 08:40 0,8 C 1,1 C 0,0 C 92 % 1034,4 hPa 0,0 l/m 0 min 0 min 20 W/m 16,1 km/h (3 Bft) 91,49 %
14.02.2019 08:42 0,8 C 1,1 C 0,0 C 92 % 1034,4 hPa 0,0 l/m 0 min 0 min 21 W/m 12,9 km/h (3 Bft) 93,62 %
14.02.2019 08:44 0,9 C 1,1 C 0,0 C 92 % 1034,3 hPa 0,0 l/m 0 min 0 min 21 W/m 9,7 km/h (2 Bft) 93,62 %
14.02.2019 08:46 0,9 C 1,1 C 0,0 C 92 % 1034,3 hPa 0,0 l/m 0 min 0 min 21 W/m 16,1 km/h (3 Bft) 93,48 %
14.02.2019 08:48 0,9 C 1,1 C 0,0 C 92 % 1034,3 hPa 0,0 l/m 0 min 0 min 22 W/m 12,9 km/h (3 Bft) 93,62 %
14.02.2019 08:50 1,0 C 1,1 C 0,6 C 92 % 1034,3 hPa 0,0 l/m 0 min 0 min 23 W/m 12,9 km/h (3 Bft) 87,23 %
14.02.2019 08:52 1,1 C 1,1 C 0,6 C 92 % 1034,2 hPa 0,0 l/m 0 min 0 min 23 W/m 12,9 km/h (3 Bft) 95,74 %
14.02.2019 08:54 1,1 C 1,1 C 0,6 C 92 % 1034,3 hPa 0,0 l/m 0 min 0 min 23 W/m 6,4 km/h (2 Bft) 95,74 %
14.02.2019 08:56 1,1 C 1,1 C 0,6 C 92 % 1034,2 hPa 0,0 l/m 0 min 0 min 25 W/m 16,1 km/h (3 Bft) 95,74 %
14.02.2019 08:58 1,2 C 1,7 C 0,6 C 92 % 1034,2 hPa 0,0 l/m 0 min 0 min 25 W/m 12,9 km/h (3 Bft) 95,65 %
14.02.2019 09:00 1,2 C 1,7 C 0,6 C 92 % 1034,2 hPa 0,0 l/m 0 min 0 min 25 W/m 16,1 km/h (3 Bft) 95,74 %
14.02.2019 09:02 1,2 C 1,7 C 0,6 C 91 % 1034,3 hPa 0,0 l/m 0 min 0 min 25 W/m 16,1 km/h (3 Bft) 97,87 %
14.02.2019 09:04 1,3 C 1,7 C 0,6 C 91 % 1034,3 hPa 0,0 l/m 0 min 0 min 26 W/m 19,3 km/h (3 Bft) 95,74 %
14.02.2019 09:06 1,3 C 1,7 C 0,6 C 91 % 1034,2 hPa 0,0 l/m 0 min 0 min 26 W/m 16,1 km/h (3 Bft) 95,74 %
14.02.2019 09:08 1,3 C 1,7 C 0,6 C 91 % 1034,2 hPa 0,0 l/m 0 min 0 min 26 W/m 16,1 km/h (3 Bft) 95,74 %
14.02.2019 09:10 1,4 C 1,7 C 0,6 C 91 % 1034,2 hPa 0,0 l/m 0 min 0 min 28 W/m 12,9 km/h (3 Bft) 95,65 %
14.02.2019 09:12 1,4 C 1,7 C 0,6 C 91 % 1034,3 hPa 0,0 l/m 0 min 0 min 28 W/m 9,7 km/h (2 Bft) 97,87 %
14.02.2019 09:14 1,4 C 1,7 C 0,6 C 91 % 1034,3 hPa 0,0 l/m 0 min 0 min 28 W/m 19,3 km/h (3 Bft) 95,74 %
14.02.2019 09:16 1,5 C 1,7 C 0,6 C 91 % 1034,3 hPa 0,0 l/m 0 min 0 min 29 W/m 16,1 km/h (3 Bft) 95,92 %
14.02.2019 09:18 1,5 C 1,7 C 1,1 C 91 % 1034,3 hPa 0,0 l/m 0 min 0 min 30 W/m 16,1 km/h (3 Bft) 97,87 %
14.02.2019 09:20 1,6 C 1,7 C 1,1 C 91 % 1034,3 hPa 0,0 l/m 0 min 0 min 30 W/m 22,5 km/h (4 Bft) 100,00 %
14.02.2019 09:22 1,6 C 1,7 C 1,1 C 91 % 1034,3 hPa 0,0 l/m 0 min 0 min 31 W/m 16,1 km/h (3 Bft) 95,74 %
14.02.2019 09:24 1,7 C 1,7 C 1,1 C 90 % 1034,2 hPa 0,0 l/m 0 min 0 min 32 W/m 12,9 km/h (3 Bft) 100,00 %
14.02.2019 09:26 1,7 C 2,2 C 1,1 C 91 % 1034,1 hPa 0,0 l/m 0 min 0 min 52 W/m 16,1 km/h (3 Bft) 100,00 %
14.02.2019 09:28 1,7 C 3,9 C 1,1 C 90 % 1034,1 hPa 0,0 l/m 2 min 0 min 185 W/m 12,9 km/h (3 Bft) 97,87 %
14.02.2019 09:30 1,8 C 5,0 C 1,1 C 90 % 1034,2 hPa 0,0 l/m 2 min 0 min 215 W/m 19,3 km/h (3 Bft) 100,00 %
14.02.2019 09:32 1,9 C 5,6 C 1,1 C 90 % 1034,2 hPa 0,0 l/m 2 min 0 min 220 W/m 19,3 km/h (3 Bft) 97,87 %
14.02.2019 09:34 2,0 C 6,1 C 1,1 C 90 % 1034,2 hPa 0,0 l/m 2 min 0 min 224 W/m 12,9 km/h (3 Bft) 100,00 %
14.02.2019 09:36 2,1 C 6,1 C 1,1 C 90 % 1034,2 hPa 0,0 l/m 2 min 0 min 230 W/m 16,1 km/h (3 Bft) 100,00 %
14.02.2019 09:38 2,2 C 6,1 C 1,7 C 90 % 1034,2 hPa 0,0 l/m 2 min 0 min 235 W/m 22,5 km/h (4 Bft) 100,00 %
14.02.2019 09:40 2,3 C 6,7 C 1,7 C 90 % 1034,1 hPa 0,0 l/m 2 min 0 min 241 W/m 16,1 km/h (3 Bft) 97,87 %
14.02.2019 09:42 2,4 C 7,2 C 1,7 C 90 % 1034,1 hPa 0,0 l/m 2 min 0 min 245 W/m 16,1 km/h (3 Bft) 97,87 %
14.02.2019 09:44 2,6 C 7,2 C 1,7 C 90 % 1034,1 hPa 0,0 l/m 2 min 0 min 251 W/m 19,3 km/h (3 Bft) 100,00 %
14.02.2019 09:46 2,7 C 7,2 C 1,7 C 89 % 1034,2 hPa 0,0 l/m 2 min 0 min 256 W/m 16,1 km/h (3 Bft) 100,00 %
14.02.2019 09:48 2,8 C 7,2 C 2,2 C 89 % 1034,2 hPa 0,0 l/m 2 min 0 min 261 W/m 12,9 km/h (3 Bft) 100,00 %
14.02.2019 09:50 2,9 C 7,2 C 2,2 C 89 % 1034,1 hPa 0,0 l/m 2 min 0 min 264 W/m 19,3 km/h (3 Bft) 100,00 %
14.02.2019 09:52 3,1 C 7,2 C 2,2 C 88 % 1034,1 hPa 0,0 l/m 2 min 0 min 269 W/m 16,1 km/h (3 Bft) 100,00 %
14.02.2019 09:54 3,2 C 7,2 C 2,8 C 88 % 1034,0 hPa 0,0 l/m 2 min 0 min 274 W/m 16,1 km/h (3 Bft) 100,00 %
14.02.2019 09:56 3,3 C 7,8 C 2,8 C 87 % 1034,0 hPa 0,0 l/m 2 min 0 min 277 W/m 12,9 km/h (3 Bft) 97,87 %
14.02.2019 09:58 3,4 C 7,8 C 3,3 C 87 % 1034,0 hPa 0,0 l/m 2 min 0 min 246 W/m 16,1 km/h (3 Bft) 100,00 %
14.02.2019 10:00 3,5 C 7,8 C 5,0 C 87 % 1034,0 hPa 0,0 l/m 2 min 0 min 259 W/m 9,7 km/h (2 Bft) 100,00 %
14.02.2019 10:02 3,7 C 8,3 C 6,1 C 86 % 1034,0 hPa 0,0 l/m 2 min 0 min 292 W/m 12,9 km/h (3 Bft) 97,83 %
14.02.2019 10:04 3,8 C 8,3 C 6,7 C 86 % 1034,0 hPa 0,0 l/m 2 min 0 min 305 W/m 12,9 km/h (3 Bft) 97,87 %
14.02.2019 10:06 3,9 C 8,3 C 6,7 C 85 % 1034,0 hPa 0,0 l/m 2 min 0 min 315 W/m 16,1 km/h (3 Bft) 100,00 %
14.02.2019 10:08 4,0 C 8,3 C 6,1 C 85 % 1034,0 hPa 0,0 l/m 2 min 0 min 323 W/m 12,9 km/h (3 Bft) 100,00 %
14.02.2019 10:10 4,2 C 8,3 C 5,0 C 84 % 1034,0 hPa 0,0 l/m 2 min 0 min 302 W/m 12,9 km/h (3 Bft) 100,00 %
14.02.2019 10:12 4,2 C 7,2 C 3,9 C 84 % 1034,0 hPa 0,0 l/m 2 min 0 min 208 W/m 22,5 km/h (4 Bft) 97,87 %
14.02.2019 10:14 4,3 C 6,1 C 3,3 C 82 % 1034,1 hPa 0,0 l/m 2 min 0 min 154 W/m 16,1 km/h (3 Bft) 97,87 %
14.02.2019 10:16 4,4 C 5,6 C 3,3 C 82 % 1034,1 hPa 0,0 l/m 0 min 0 min 127 W/m 9,7 km/h (2 Bft) 100,00 %
14.02.2019 10:18 4,4 C 7,2 C 3,3 C 82 % 1034,1 hPa 0,0 l/m 2 min 0 min 240 W/m 9,7 km/h (2 Bft) 100,00 %
14.02.2019 10:20 4,5 C 7,8 C 3,3 C 82 % 1034,1 hPa 0,0 l/m 2 min 0 min 333 W/m 19,3 km/h (3 Bft) 100,00 %
14.02.2019 10:22 4,6 C 8,9 C 3,3 C 82 % 1034,0 hPa 0,0 l/m 2 min 0 min 346 W/m 12,9 km/h (3 Bft) 97,87 %
14.02.2019 10:24 4,7 C 9,4 C 3,9 C 82 % 1034,1 hPa 0,0 l/m 2 min 0 min 354 W/m 12,9 km/h (3 Bft) 95,74 %
14.02.2019 10:26 4,7 C 10,0 C 3,9 C 82 % 1034,1 hPa 0,0 l/m 2 min 0 min 358 W/m 12,9 km/h (3 Bft) 97,87 %
14.02.2019 10:28 4,8 C 10,6 C 3,9 C 81 % 1034,1 hPa 0,0 l/m 2 min 0 min 323 W/m 9,7 km/h (2 Bft) 95,74 %
14.02.2019 10:30 4,9 C 8,9 C 3,9 C 81 % 1034,2 hPa 0,0 l/m 2 min 0 min 188 W/m 9,7 km/h (2 Bft) 95,65 %
14.02.2019 10:32 5,0 C 6,7 C 3,9 C 81 % 1034,2 hPa 0,0 l/m 0 min 0 min 111 W/m 22,5 km/h (4 Bft) 97,87 %
14.02.2019 10:34 5,0 C 6,1 C 3,3 C 80 % 1034,3 hPa 0,0 l/m 0 min 0 min 144 W/m 19,3 km/h (3 Bft) 97,87 %
14.02.2019 10:36 5,1 C 8,3 C 3,9 C 80 % 1034,2 hPa 0,0 l/m 2 min 0 min 310 W/m 16,1 km/h (3 Bft) 97,87 %
14.02.2019 10:38 5,1 C 8,9 C 3,9 C 80 % 1034,2 hPa 0,0 l/m 2 min 0 min 360 W/m 16,1 km/h (3 Bft) 97,14 %
14.02.2019 10:40 5,1 C 9,4 C 4,4 C 79 % 1034,1 hPa 0,0 l/m 2 min 0 min 380 W/m 12,9 km/h (3 Bft) 97,87 %
14.02.2019 10:42 5,2 C 8,9 C 4,4 C 79 % 1034,1 hPa 0,0 l/m 2 min 0 min 344 W/m 19,3 km/h (3 Bft) 95,74 %
14.02.2019 10:44 5,2 C 8,3 C 4,4 C 78 % 1034,1 hPa 0,0 l/m 2 min 0 min 273 W/m 12,9 km/h (3 Bft) 97,87 %
14.02.2019 10:46 5,3 C 9,4 C 4,4 C 78 % 1034,0 hPa 0,0 l/m 2 min 0 min 361 W/m 12,9 km/h (3 Bft) 95,65 %
14.02.2019 10:48 5,3 C 10,0 C 4,4 C 78 % 1034,0 hPa 0,0 l/m 2 min 0 min 442 W/m 19,3 km/h (3 Bft) 97,87 %
14.02.2019 10:50 5,4 C 10,0 C 5,0 C 78 % 1034,1 hPa 0,0 l/m 2 min 0 min 415 W/m 12,9 km/h (3 Bft) 97,87 %
14.02.2019 10:52 5,5 C 8,9 C 4,4 C 77 % 1034,1 hPa 0,0 l/m 2 min 0 min 308 W/m 19,3 km/h (3 Bft) 97,87 %
14.02.2019 10:54 5,6 C 8,9 C 5,0 C 77 % 1034,3 hPa 0,0 l/m 2 min 0 min 326 W/m 16,1 km/h (3 Bft) 97,87 %
14.02.2019 10:56 5,7 C 10,0 C 5,0 C 77 % 1034,3 hPa 0,0 l/m 2 min 0 min 455 W/m 19,3 km/h (3 Bft) 95,74 %
14.02.2019 10:58 5,8 C 10,0 C 5,0 C 77 % 1034,2 hPa 0,0 l/m 2 min 0 min 410 W/m 16,1 km/h (3 Bft) 100,00 %
14.02.2019 11:00 5,9 C 9,4 C 5,0 C 76 % 1034,1 hPa 0,0 l/m 2 min 0 min 323 W/m 16,1 km/h (3 Bft) 100,00 %
14.02.2019 11:02 5,9 C 8,9 C 5,0 C 76 % 1034,1 hPa 0,0 l/m 2 min 0 min 333 W/m 16,1 km/h (3 Bft) 95,74 %
14.02.2019 11:04 6,0 C 8,3 C 5,0 C 76 % 1034,1 hPa 0,0 l/m 2 min 0 min 270 W/m 12,9 km/h (3 Bft) 97,87 %
14.02.2019 11:06 6,1 C 7,8 C 5,0 C 76 % 1034,1 hPa 0,0 l/m 2 min 0 min 222 W/m 19,3 km/h (3 Bft) 98,28 %
14.02.2019 11:08 6,1 C 8,3 C 5,6 C 76 % 1034,1 hPa 0,0 l/m 2 min 0 min 323 W/m 12,9 km/h (3 Bft) 95,74 %
14.02.2019 11:10 6,2 C 10,0 C 5,6 C 76 % 1034,1 hPa 0,0 l/m 2 min 0 min 360 W/m 12,9 km/h (3 Bft) 100,00 %
14.02.2019 11:12 6,2 C 8,9 C 5,6 C 76 % 1034,1 hPa 0,0 l/m 2 min 0 min 355 W/m 16,1 km/h (3 Bft) 97,87 %
14.02.2019 11:14 6,3 C 8,9 C 5,6 C 76 % 1034,1 hPa 0,0 l/m 2 min 0 min 296 W/m 12,9 km/h (3 Bft) 97,87 %
14.02.2019 11:16 6,3 C 8,3 C 5,6 C 75 % 1034,1 hPa 0,0 l/m 2 min 0 min 318 W/m 19,3 km/h (3 Bft) 97,87 %
14.02.2019 11:18 6,3 C 8,9 C 5,6 C 75 % 1034,1 hPa 0,0 l/m 2 min 0 min 402 W/m 12,9 km/h (3 Bft) 97,87 %
14.02.2019 11:20 6,4 C 10,6 C 5,6 C 75 % 1034,1 hPa 0,0 l/m 2 min 0 min 430 W/m 9,7 km/h (2 Bft) 95,65 %
14.02.2019 11:22 6,4 C 10,6 C 5,6 C 75 % 1034,2 hPa 0,0 l/m 2 min 0 min 456 W/m 12,9 km/h (3 Bft) 95,74 %
14.02.2019 11:24 6,4 C 11,1 C 5,6 C 74 % 1034,2 hPa 0,0 l/m 2 min 0 min 470 W/m 16,1 km/h (3 Bft) 95,74 %
14.02.2019 11:26 6,5 C 11,7 C 6,1 C 74 % 1034,1 hPa 0,0 l/m 2 min 0 min 471 W/m 16,1 km/h (3 Bft) 95,74 %
14.02.2019 11:28 6,6 C 11,7 C 6,1 C 74 % 1034,2 hPa 0,0 l/m 2 min 0 min 472 W/m 22,5 km/h (4 Bft) 97,87 %
14.02.2019 11:30 6,7 C 11,7 C 6,1 C 74 % 1034,1 hPa 0,0 l/m 2 min 0 min 470 W/m 16,1 km/h (3 Bft) 97,87 %
14.02.2019 11:32 6,8 C 11,7 C 6,1 C 73 % 1034,1 hPa 0,0 l/m 2 min 0 min 455 W/m 19,3 km/h (3 Bft) 97,83 %
14.02.2019 11:34 6,9 C 11,7 C 6,7 C 73 % 1034,1 hPa 0,0 l/m 2 min 0 min 462 W/m 16,1 km/h (3 Bft) 97,87 %
14.02.2019 11:36 7,1 C 11,7 C 6,7 C 74 % 1034,1 hPa 0,0 l/m 2 min 0 min 479 W/m 16,1 km/h (3 Bft) 98,31 %
14.02.2019 11:38 7,2 C 11,7 C 6,7 C 73 % 1034,2 hPa 0,0 l/m 2 min 0 min 443 W/m 22,5 km/h (4 Bft) 95,74 %
14.02.2019 11:40 7,2 C 12,2 C 6,7 C 72 % 1034,1 hPa 0,0 l/m 2 min 0 min 446 W/m 9,7 km/h (2 Bft) 97,14 %
14.02.2019 11:42 7,4 C 11,1 C 6,7 C 72 % 1034,1 hPa 0,0 l/m 2 min 0 min 396 W/m 22,5 km/h (4 Bft) 97,87 %
14.02.2019 11:44 7,4 C 11,1 C 6,7 C 72 % 1034,2 hPa 0,0 l/m 2 min 0 min 328 W/m 9,7 km/h (2 Bft) 97,83 %
14.02.2019 11:46 7,5 C 10,6 C 7,2 C 72 % 1034,1 hPa 0,0 l/m 2 min 0 min 272 W/m 9,7 km/h (2 Bft) 97,87 %
14.02.2019 11:48 7,6 C 10,6 C 7,2 C 72 % 1034,1 hPa 0,0 l/m 2 min 0 min 258 W/m 12,9 km/h (3 Bft) 97,87 %
14.02.2019 11:50 7,7 C 11,7 C 7,2 C 71 % 1034,0 hPa 0,0 l/m 2 min 0 min 310 W/m 12,9 km/h (3 Bft) 97,87 %
14.02.2019 11:52 7,7 C 11,1 C 7,2 C 71 % 1034,1 hPa 0,0 l/m 2 min 0 min 319 W/m 12,9 km/h (3 Bft) 100,00 %
14.02.2019 11:54 7,8 C 10,0 C 6,7 C 70 % 1034,1 hPa 0,0 l/m 2 min 0 min 239 W/m 16,1 km/h (3 Bft) 100,00 %
14.02.2019 11:56 7,8 C 10,6 C 7,2 C 70 % 1034,2 hPa 0,0 l/m 2 min 0 min 267 W/m 9,7 km/h (2 Bft) 97,83 %
14.02.2019 11:58 7,9 C 11,1 C 7,2 C 70 % 1034,2 hPa 0,0 l/m 2 min 0 min 291 W/m 16,1 km/h (3 Bft) 100,00 %
14.02.2019 12:00 7,9 C 12,2 C 7,8 C 70 % 1034,2 hPa 0,0 l/m 2 min 0 min 426 W/m 12,9 km/h (3 Bft) 100,00 %
14.02.2019 12:02 8,0 C 11,7 C 7,2 C 70 % 1034,3 hPa 0,0 l/m 2 min 0 min 331 W/m 16,1 km/h (3 Bft) 100,00 %
14.02.2019 12:04 8,1 C 11,1 C 7,2 C 70 % 1034,3 hPa 0,0 l/m 2 min 0 min 295 W/m 22,5 km/h (4 Bft) 97,87 %
14.02.2019 12:08 8,2 C 12,2 C 7,2 C 69 % 1034,3 hPa 0,0 l/m 4 min 0 min 359 W/m 12,9 km/h (3 Bft) 100,00 %
14.02.2019 12:10 8,2 C 12,8 C 7,2 C 69 % 1034,2 hPa 0,0 l/m 2 min 0 min 495 W/m 12,9 km/h (3 Bft) 100,00 %
14.02.2019 12:12 8,3 C 12,8 C 7,2 C 69 % 1034,1 hPa 0,0 l/m 2 min 0 min 392 W/m 19,3 km/h (3 Bft) 100,00 %
14.02.2019 12:14 8,4 C 13,9 C 7,8 C 69 % 1034,1 hPa 0,0 l/m 2 min 0 min 452 W/m 16,1 km/h (3 Bft) 100,00 %
14.02.2019 12:16 8,4 C 15,0 C 7,8 C 69 % 1034,1 hPa 0,0 l/m 2 min 0 min 500 W/m 12,9 km/h (3 Bft) 100,00 %
14.02.2019 12:18 8,6 C 15,6 C 7,8 C 69 % 1034,1 hPa 0,0 l/m 2 min 0 min 509 W/m 9,7 km/h (2 Bft) 100,00 %
14.02.2019 12:20 8,7 C 15,6 C 8,3 C 69 % 1034,1 hPa 0,0 l/m 2 min 0 min 502 W/m 12,9 km/h (3 Bft) 100,00 %
14.02.2019 12:22 8,8 C 16,7 C 8,3 C 68 % 1034,1 hPa 0,0 l/m 2 min 0 min 531 W/m 12,9 km/h (3 Bft) 100,00 %
14.02.2019 12:24 8,9 C 15,0 C 8,3 C 68 % 1034,1 hPa 0,0 l/m 2 min 0 min 490 W/m 12,9 km/h (3 Bft) 100,00 %
14.02.2019 12:26 9,1 C 14,4 C 8,3 C 68 % 1034,0 hPa 0,0 l/m 2 min 0 min 512 W/m 12,9 km/h (3 Bft) 97,87 %
14.02.2019 12:28 9,2 C 14,4 C 8,9 C 67 % 1034,0 hPa 0,0 l/m 2 min 0 min 528 W/m 16,1 km/h (3 Bft) 97,87 %
14.02.2019 12:30 9,3 C 14,4 C 8,9 C 67 % 1034,0 hPa 0,0 l/m 2 min 0 min 530 W/m 12,9 km/h (3 Bft) 100,00 %
14.02.2019 12:32 9,4 C 14,4 C 9,4 C 66 % 1034,0 hPa 0,0 l/m 2 min 0 min 484 W/m 9,7 km/h (2 Bft) 97,87 %
14.02.2019 12:34 9,5 C 14,4 C 10,6 C 66 % 1033,9 hPa 0,0 l/m 2 min 0 min 458 W/m 19,3 km/h (3 Bft) 97,87 %
14.02.2019 12:36 9,6 C 15,0 C 13,9 C 65 % 1033,9 hPa 0,0 l/m 2 min 0 min 550 W/m 9,7 km/h (2 Bft) 98,31 %
14.02.2019 12:38 9,7 C 15,6 C 15,6 C 65 % 1033,9 hPa 0,0 l/m 2 min 0 min 560 W/m 16,1 km/h (3 Bft) 97,87 %
14.02.2019 12:40 9,8 C 15,6 C 15,6 C 64 % 1033,9 hPa 0,0 l/m 2 min 0 min 555 W/m 16,1 km/h (3 Bft) 97,14 %
14.02.2019 12:42 9,9 C 14,4 C 15,0 C 63 % 1033,9 hPa 0,0 l/m 2 min 0 min 507 W/m 16,1 km/h (3 Bft) 95,65 %
14.02.2019 12:44 10,0 C 13,3 C 14,4 C 62 % 1033,8 hPa 0,0 l/m 2 min 0 min 393 W/m 22,5 km/h (4 Bft) 97,87 %
14.02.2019 12:46 10,0 C 12,8 C 13,3 C 61 % 1033,8 hPa 0,0 l/m 2 min 0 min 343 W/m 19,3 km/h (3 Bft) 95,74 %
14.02.2019 12:48 10,1 C 14,4 C 14,4 C 62 % 1033,8 hPa 0,0 l/m 2 min 0 min 466 W/m 19,3 km/h (3 Bft) 95,74 %
14.02.2019 12:50 10,1 C 13,9 C 14,4 C 61 % 1033,8 hPa 0,0 l/m 2 min 0 min 490 W/m 16,1 km/h (3 Bft) 97,87 %
14.02.2019 12:52 10,1 C 13,9 C 13,9 C 61 % 1033,8 hPa 0,0 l/m 2 min 0 min 380 W/m 16,1 km/h (3 Bft) 97,87 %
14.02.2019 12:54 10,2 C 15,0 C 14,4 C 61 % 1033,8 hPa 0,0 l/m 2 min 0 min 437 W/m 12,9 km/h (3 Bft) 97,83 %
14.02.2019 12:56 10,2 C 15,0 C 13,3 C 60 % 1033,8 hPa 0,0 l/m 2 min 0 min 579 W/m 22,5 km/h (4 Bft) 97,87 %
14.02.2019 12:58 10,3 C 14,4 C 12,2 C 60 % 1033,7 hPa 0,0 l/m 2 min 0 min 511 W/m 16,1 km/h (3 Bft) 97,87 %
14.02.2019 13:00 10,3 C 13,9 C 12,8 C 61 % 1033,7 hPa 0,0 l/m 2 min 0 min 417 W/m 9,7 km/h (2 Bft) 97,87 %
14.02.2019 13:02 10,3 C 14,4 C 13,9 C 61 % 1033,7 hPa 0,0 l/m 2 min 0 min 409 W/m 9,7 km/h (2 Bft) 97,87 %
14.02.2019 13:04 10,4 C 13,9 C 13,3 C 61 % 1033,7 hPa 0,0 l/m 2 min 0 min 335 W/m 12,9 km/h (3 Bft) 95,74 %
14.02.2019 13:06 10,5 C 14,4 C 13,3 C 61 % 1033,7 hPa 0,0 l/m 2 min 0 min 408 W/m 12,9 km/h (3 Bft) 98,28 %
14.02.2019 13:08 10,6 C 13,9 C 12,2 C 61 % 1033,7 hPa 0,0 l/m 2 min 0 min 287 W/m 9,7 km/h (2 Bft) 97,87 %
14.02.2019 13:10 10,6 C 12,8 C 11,7 C 61 % 1033,7 hPa 0,0 l/m 2 min 0 min 248 W/m 9,7 km/h (2 Bft) 97,14 %
14.02.2019 13:12 10,6 C 12,8 C 11,7 C 61 % 1033,6 hPa 0,0 l/m 2 min 0 min 227 W/m 9,7 km/h (2 Bft) 97,87 %
14.02.2019 13:14 10,7 C 12,2 C 11,1 C 60 % 1033,7 hPa 0,0 l/m 2 min 0 min 246 W/m 9,7 km/h (2 Bft) 97,87 %
14.02.2019 13:16 10,7 C 12,2 C 11,1 C 60 % 1033,6 hPa 0,0 l/m 2 min 0 min 258 W/m 9,7 km/h (2 Bft) 97,87 %
14.02.2019 13:18 10,7 C 13,3 C 11,7 C 60 % 1033,6 hPa 0,0 l/m 2 min 0 min 349 W/m 16,1 km/h (3 Bft) 100,00 %
14.02.2019 13:20 10,7 C 15,6 C 11,7 C 60 % 1033,5 hPa 0,0 l/m 2 min 0 min 505 W/m 9,7 km/h (2 Bft) 97,87 %
14.02.2019 13:22 10,8 C 16,7 C 11,7 C 60 % 1033,4 hPa 0,0 l/m 2 min 0 min 492 W/m 6,4 km/h (2 Bft) 97,87 %
14.02.2019 13:24 10,8 C 16,7 C 11,7 C 60 % 1033,3 hPa 0,0 l/m 2 min 0 min 496 W/m 12,9 km/h (3 Bft) 100,00 %
14.02.2019 13:26 10,9 C 16,1 C 11,7 C 60 % 1033,3 hPa 0,0 l/m 2 min 0 min 431 W/m 12,9 km/h (3 Bft) 97,87 %
14.02.2019 13:28 11,0 C 15,0 C 11,7 C 60 % 1033,3 hPa 0,0 l/m 2 min 0 min 367 W/m 12,9 km/h (3 Bft) 100,00 %
14.02.2019 13:30 11,0 C 13,9 C 11,7 C 59 % 1033,3 hPa 0,0 l/m 2 min 0 min 361 W/m 12,9 km/h (3 Bft) 100,00 %
14.02.2019 13:32 11,1 C 13,9 C 11,1 C 58 % 1033,3 hPa 0,0 l/m 2 min 0 min 344 W/m 16,1 km/h (3 Bft) 97,87 %
14.02.2019 13:34 11,1 C 13,9 C 11,1 C 58 % 1033,3 hPa 0,0 l/m 2 min 0 min 356 W/m 12,9 km/h (3 Bft) 97,87 %
14.02.2019 13:36 11,1 C 13,3 C 11,1 C 58 % 1033,2 hPa 0,0 l/m 2 min 0 min 313 W/m 16,1 km/h (3 Bft) 98,31 %
14.02.2019 13:38 11,2 C 12,8 C 11,1 C 58 % 1033,1 hPa 0,0 l/m 2 min 0 min 274 W/m 12,9 km/h (3 Bft) 97,83 %
14.02.2019 13:40 11,2 C 12,8 C 11,1 C 57 % 1033,1 hPa 0,0 l/m 2 min 0 min 266 W/m 9,7 km/h (2 Bft) 94,29 %
14.02.2019 13:42 11,2 C 13,3 C 11,1 C 57 % 1033,0 hPa 0,0 l/m 2 min 0 min 304 W/m 9,7 km/h (2 Bft) 97,87 %
14.02.2019 13:44 11,2 C 13,9 C 11,1 C 57 % 1032,9 hPa 0,0 l/m 2 min 0 min 316 W/m 12,9 km/h (3 Bft) 97,87 %
14.02.2019 13:46 11,2 C 13,9 C 11,1 C 57 % 1032,9 hPa 0,0 l/m 2 min 0 min 314 W/m 12,9 km/h (3 Bft) 95,74 %
14.02.2019 13:48 11,2 C 13,9 C 11,1 C 56 % 1032,9 hPa 0,0 l/m 2 min 0 min 298 W/m 12,9 km/h (3 Bft) 97,87 %
14.02.2019 13:50 11,3 C 15,0 C 11,1 C 57 % 1032,9 hPa 0,0 l/m 2 min 0 min 382 W/m 12,9 km/h (3 Bft) 97,87 %
14.02.2019 13:52 11,3 C 15,6 C 11,7 C 57 % 1032,9 hPa 0,0 l/m 2 min 0 min 429 W/m 6,4 km/h (2 Bft) 95,65 %
14.02.2019 13:54 11,4 C 16,7 C 11,7 C 56 % 1032,8 hPa 0,0 l/m 2 min 0 min 482 W/m 9,7 km/h (2 Bft) 97,87 %
14.02.2019 13:56 11,4 C 16,7 C 11,1 C 56 % 1032,8 hPa 0,0 l/m 2 min 0 min 438 W/m 9,7 km/h (2 Bft) 97,87 %
14.02.2019 13:58 11,5 C 16,1 C 11,1 C 56 % 1032,8 hPa 0,0 l/m 2 min 0 min 430 W/m 9,7 km/h (2 Bft) 97,87 %
14.02.2019 14:00 11,6 C 15,6 C 11,1 C 56 % 1032,8 hPa 0,0 l/m 2 min 0 min 394 W/m 12,9 km/h (3 Bft) 95,74 %
14.02.2019 14:02 11,6 C 15,6 C 11,1 C 56 % 1032,8 hPa 0,0 l/m 2 min 0 min 380 W/m 9,7 km/h (2 Bft) 97,87 %
14.02.2019 14:04 11,7 C 15,0 C 11,1 C 56 % 1032,8 hPa 0,0 l/m 2 min 0 min 303 W/m 9,7 km/h (2 Bft) 97,83 %
14.02.2019 14:06 11,8 C 15,0 C 11,1 C 56 % 1032,8 hPa 0,0 l/m 2 min 0 min 322 W/m 6,4 km/h (2 Bft) 96,61 %
14.02.2019 14:08 11,8 C 15,6 C 11,1 C 56 % 1032,8 hPa 0,0 l/m 2 min 0 min 363 W/m 6,4 km/h (2 Bft) 94,29 %
14.02.2019 14:10 11,8 C 16,1 C 11,1 C 56 % 1032,8 hPa 0,0 l/m 2 min 0 min 466 W/m 9,7 km/h (2 Bft) 95,74 %
14.02.2019 14:12 11,9 C 17,8 C 11,7 C 57 % 1032,8 hPa 0,0 l/m 2 min 0 min 492 W/m 6,4 km/h (2 Bft) 95,74 %
14.02.2019 14:14 12,0 C 18,3 C 11,7 C 56 % 1032,8 hPa 0,0 l/m 2 min 0 min 487 W/m 6,4 km/h (2 Bft) 100,00 %
14.02.2019 14:16 12,1 C 17,8 C 12,2 C 56 % 1032,8 hPa 0,0 l/m 2 min 0 min 475 W/m 16,1 km/h (3 Bft) 97,83 %
14.02.2019 14:18 12,2 C 17,2 C 12,2 C 55 % 1032,8 hPa 0,0 l/m 2 min 0 min 437 W/m 9,7 km/h (2 Bft) 95,74 %
14.02.2019 14:20 12,2 C 17,2 C 11,7 C 55 % 1032,8 hPa 0,0 l/m 2 min 0 min 393 W/m 9,7 km/h (2 Bft) 97,87 %
14.02.2019 14:22 12,3 C 17,2 C 11,7 C 55 % 1032,8 hPa 0,0 l/m 2 min 0 min 388 W/m 9,7 km/h (2 Bft) 97,87 %
14.02.2019 14:24 12,3 C 17,8 C 11,7 C 55 % 1032,8 hPa 0,0 l/m 2 min 0 min 441 W/m 9,7 km/h (2 Bft) 100,00 %
14.02.2019 14:26 12,4 C 17,8 C 11,7 C 55 % 1032,8 hPa 0,0 l/m 2 min 0 min 472 W/m 9,7 km/h (2 Bft) 100,00 %
14.02.2019 14:28 12,4 C 17,2 C 11,7 C 54 % 1032,8 hPa 0,0 l/m 2 min 0 min 425 W/m 9,7 km/h (2 Bft) 97,83 %
14.02.2019 14:30 12,5 C 18,3 C 12,2 C 54 % 1032,8 hPa 0,0 l/m 2 min 0 min 460 W/m 9,7 km/h (2 Bft) 97,87 %
14.02.2019 14:32 12,6 C 18,3 C 12,2 C 54 % 1032,8 hPa 0,0 l/m 2 min 0 min 412 W/m 9,7 km/h (2 Bft) 97,87 %
14.02.2019 14:34 12,6 C 16,7 C 12,2 C 52 % 1032,8 hPa 0,0 l/m 2 min 0 min 406 W/m 9,7 km/h (2 Bft) 97,87 %
14.02.2019 14:36 12,6 C 15,6 C 11,7 C 52 % 1032,8 hPa 0,0 l/m 2 min 0 min 314 W/m 12,9 km/h (3 Bft) 98,28 %
14.02.2019 14:38 12,6 C 15,0 C 11,7 C 51 % 1032,8 hPa 0,0 l/m 2 min 0 min 250 W/m 12,9 km/h (3 Bft) 97,14 %
14.02.2019 14:40 12,6 C 14,4 C 11,7 C 51 % 1032,8 hPa 0,0 l/m 2 min 0 min 243 W/m 12,9 km/h (3 Bft) 97,87 %
14.02.2019 14:42 12,6 C 15,0 C 11,1 C 52 % 1032,8 hPa 0,0 l/m 2 min 0 min 322 W/m 9,7 km/h (2 Bft) 97,87 %
14.02.2019 14:44 12,6 C 16,1 C 11,7 C 53 % 1032,8 hPa 0,0 l/m 2 min 0 min 413 W/m 9,7 km/h (2 Bft) 95,74 %
14.02.2019 14:46 12,6 C 16,7 C 11,7 C 54 % 1032,8 hPa 0,0 l/m 2 min 0 min 419 W/m 9,7 km/h (2 Bft) 97,87 %
14.02.2019 14:48 12,6 C 16,7 C 11,7 C 53 % 1032,7 hPa 0,0 l/m 2 min 0 min 408 W/m 16,1 km/h (3 Bft) 95,74 %
14.02.2019 14:50 12,6 C 16,7 C 11,7 C 55 % 1032,7 hPa 0,0 l/m 2 min 0 min 401 W/m 12,9 km/h (3 Bft) 97,87 %
14.02.2019 14:52 12,6 C 16,7 C 11,1 C 56 % 1032,8 hPa 0,0 l/m 2 min 0 min 356 W/m 9,7 km/h (2 Bft) 97,83 %
14.02.2019 14:54 12,6 C 16,7 C 11,1 C 56 % 1032,7 hPa 0,0 l/m 2 min 0 min 353 W/m 6,4 km/h (2 Bft) 95,74 %
14.02.2019 14:56 12,7 C 17,2 C 11,1 C 58 % 1032,7 hPa 0,0 l/m 2 min 0 min 372 W/m 6,4 km/h (2 Bft) 95,74 %
14.02.2019 14:58 12,7 C 17,2 C 11,1 C 57 % 1032,7 hPa 0,0 l/m 2 min 0 min 374 W/m 9,7 km/h (2 Bft) 95,74 %
14.02.2019 15:00 12,7 C 17,2 C 11,1 C 57 % 1032,7 hPa 0,0 l/m 2 min 0 min 365 W/m 9,7 km/h (2 Bft) 95,74 %
14.02.2019 15:02 12,7 C 16,7 C 11,1 C 57 % 1032,7 hPa 0,0 l/m 2 min 0 min 371 W/m 6,4 km/h (2 Bft) 95,65 %
14.02.2019 15:04 12,7 C 17,2 C 11,1 C 58 % 1032,7 hPa 0,0 l/m 2 min 0 min 378 W/m 6,4 km/h (2 Bft) 95,74 %
14.02.2019 15:06 12,7 C 17,2 C 10,6 C 58 % 1032,7 hPa 0,0 l/m 2 min 0 min 377 W/m 9,7 km/h (2 Bft) 94,92 %
14.02.2019 15:08 12,7 C 17,2 C 10,6 C 58 % 1032,7 hPa 0,0 l/m 2 min 0 min 371 W/m 6,4 km/h (2 Bft) 94,29 %
14.02.2019 15:10 12,6 C 17,2 C 10,6 C 58 % 1032,7 hPa 0,0 l/m 2 min 0 min 355 W/m 6,4 km/h (2 Bft) 91,49 %
14.02.2019 15:12 12,6 C 16,1 C 10,6 C 57 % 1032,6 hPa 0,0 l/m 2 min 0 min 326 W/m 9,7 km/h (2 Bft) 95,74 %
14.02.2019 15:14 12,6 C 15,0 C 10,6 C 56 % 1032,6 hPa 0,0 l/m 2 min 0 min 243 W/m 12,9 km/h (3 Bft) 95,65 %
14.02.2019 15:16 12,4 C 13,9 C 10,0 C 56 % 1032,6 hPa 0,0 l/m 2 min 0 min 159 W/m 9,7 km/h (2 Bft) 95,74 %
14.02.2019 15:18 12,4 C 14,4 C 10,0 C 56 % 1032,5 hPa 0,0 l/m 2 min 0 min 248 W/m 9,7 km/h (2 Bft) 95,74 %
14.02.2019 15:20 12,3 C 15,0 C 10,0 C 57 % 1032,5 hPa 0,0 l/m 2 min 0 min 271 W/m 9,7 km/h (2 Bft) 95,74 %
14.02.2019 15:22 12,3 C 15,6 C 10,0 C 57 % 1032,5 hPa 0,0 l/m 2 min 0 min 317 W/m 9,7 km/h (2 Bft) 95,74 %
14.02.2019 15:24 12,3 C 15,6 C 10,0 C 56 % 1032,5 hPa 0,0 l/m 2 min 0 min 333 W/m 9,7 km/h (2 Bft) 95,74 %
14.02.2019 15:26 12,3 C 16,1 C 10,0 C 56 % 1032,5 hPa 0,0 l/m 2 min 0 min 328 W/m 12,9 km/h (3 Bft) 97,83 %
14.02.2019 15:28 12,3 C 15,6 C 10,0 C 56 % 1032,5 hPa 0,0 l/m 2 min 0 min 327 W/m 12,9 km/h (3 Bft) 97,87 %
14.02.2019 15:30 12,3 C 16,1 C 10,0 C 57 % 1032,5 hPa 0,0 l/m 2 min 0 min 305 W/m 6,4 km/h (2 Bft) 97,87 %
14.02.2019 15:32 12,3 C 15,6 C 10,0 C 56 % 1032,4 hPa 0,0 l/m 2 min 0 min 279 W/m 9,7 km/h (2 Bft) 97,87 %
14.02.2019 15:34 12,2 C 13,9 C 10,0 C 56 % 1032,4 hPa 0,0 l/m 2 min 0 min 175 W/m 12,9 km/h (3 Bft) 97,87 %
14.02.2019 15:36 12,2 C 12,8 C 10,0 C 57 % 1032,4 hPa 0,0 l/m 0 min 0 min 94 W/m 6,4 km/h (2 Bft) 96,55 %
14.02.2019 15:38 12,1 C 12,8 C 10,0 C 57 % 1032,4 hPa 0,0 l/m 0 min 0 min 107 W/m 9,7 km/h (2 Bft) 97,14 %
14.02.2019 15:40 12,1 C 12,8 C 10,0 C 57 % 1032,3 hPa 0,0 l/m 0 min 0 min 132 W/m 9,7 km/h (2 Bft) 100,00 %
14.02.2019 15:42 12,1 C 13,3 C 9,4 C 58 % 1032,3 hPa 0,0 l/m 2 min 0 min 149 W/m 3,2 km/h (1 Bft) 100,00 %
14.02.2019 15:44 12,1 C 14,4 C 9,4 C 58 % 1032,3 hPa 0,0 l/m 2 min 0 min 239 W/m 6,4 km/h (2 Bft) 100,00 %
14.02.2019 15:46 12,1 C 15,0 C 9,4 C 58 % 1032,3 hPa 0,0 l/m 2 min 0 min 227 W/m 6,4 km/h (2 Bft) 97,87 %
14.02.2019 15:48 12,1 C 15,0 C 9,4 C 57 % 1032,2 hPa 0,0 l/m 2 min 0 min 205 W/m 6,4 km/h (2 Bft) 100,00 %
14.02.2019 15:50 12,1 C 15,0 C 9,4 C 57 % 1032,2 hPa 0,0 l/m 2 min 0 min 224 W/m 6,4 km/h (2 Bft) 100,00 %
14.02.2019 15:52 12,1 C 15,0 C 9,4 C 56 % 1032,3 hPa 0,0 l/m 2 min 0 min 228 W/m 6,4 km/h (2 Bft) 100,00 %
14.02.2019 15:54 12,1 C 15,0 C 10,0 C 56 % 1032,2 hPa 0,0 l/m 2 min 0 min 234 W/m 9,7 km/h (2 Bft) 100,00 %
14.02.2019 15:56 12,1 C 16,1 C 9,4 C 56 % 1032,2 hPa 0,0 l/m 2 min 0 min 249 W/m 3,2 km/h (1 Bft) 97,87 %
14.02.2019 15:58 12,1 C 16,7 C 9,4 C 57 % 1032,2 hPa 0,0 l/m 2 min 0 min 258 W/m 6,4 km/h (2 Bft) 100,00 %
14.02.2019 16:00 12,1 C 16,7 C 9,4 C 56 % 1032,1 hPa 0,0 l/m 2 min 0 min 250 W/m 6,4 km/h (2 Bft) 100,00 %
14.02.2019 16:02 12,2 C 17,2 C 9,4 C 56 % 1032,1 hPa 0,0 l/m 2 min 0 min 243 W/m 6,4 km/h (2 Bft) 97,83 %
14.02.2019 16:04 12,2 C 16,7 C 9,4 C 56 % 1032,1 hPa 0,0 l/m 2 min 0 min 242 W/m 6,4 km/h (2 Bft) 97,87 %
14.02.2019 16:06 12,2 C 17,2 C 9,4 C 55 % 1032,1 hPa 0,0 l/m 2 min 0 min 236 W/m 6,4 km/h (2 Bft) 98,31 %
14.02.2019 16:08 12,3 C 16,7 C 9,4 C 55 % 1032,1 hPa 0,0 l/m 2 min 0 min 223 W/m 6,4 km/h (2 Bft) 94,29 %
14.02.2019 16:10 12,3 C 16,7 C 9,4 C 55 % 1031,9 hPa 0,0 l/m 2 min 0 min 212 W/m 6,4 km/h (2 Bft) 97,87 %
14.02.2019 16:12 12,3 C 16,7 C 9,4 C 55 % 1031,9 hPa 0,0 l/m 2 min 0 min 203 W/m 6,4 km/h (2 Bft) 97,83 %
14.02.2019 16:14 12,3 C 17,2 C 8,9 C 55 % 1031,9 hPa 0,0 l/m 2 min 0 min 192 W/m 3,2 km/h (1 Bft) 95,74 %
14.02.2019 16:16 12,4 C 16,7 C 8,9 C 55 % 1032,0 hPa 0,0 l/m 2 min 0 min 184 W/m 6,4 km/h (2 Bft) 95,74 %
14.02.2019 16:18 12,4 C 15,0 C 8,9 C 54 % 1031,9 hPa 0,0 l/m 2 min 0 min 185 W/m 6,4 km/h (2 Bft) 97,87 %
14.02.2019 16:20 12,4 C 13,9 C 8,9 C 54 % 1031,9 hPa 0,0 l/m 2 min 0 min 159 W/m 6,4 km/h (2 Bft) 97,87 %
14.02.2019 16:22 12,4 C 12,8 C 8,3 C 54 % 1031,9 hPa 0,0 l/m 0 min 0 min 91 W/m 6,4 km/h (2 Bft) 95,74 %
14.02.2019 16:24 12,4 C 12,2 C 8,3 C 54 % 1031,9 hPa 0,0 l/m 0 min 0 min 40 W/m 6,4 km/h (2 Bft) 97,83 %
14.02.2019 16:26 12,4 C 12,2 C 8,9 C 53 % 1031,8 hPa 0,0 l/m 0 min 0 min 39 W/m 6,4 km/h (2 Bft) 97,87 %
14.02.2019 16:28 12,4 C 11,7 C 9,4 C 53 % 1031,8 hPa 0,0 l/m 0 min 0 min 39 W/m 6,4 km/h (2 Bft) 97,87 %
14.02.2019 16:30 12,4 C 11,7 C 9,4 C 53 % 1031,8 hPa 0,0 l/m 0 min 0 min 37 W/m 6,4 km/h (2 Bft) 97,87 %
14.02.2019 16:32 12,4 C 11,7 C 8,9 C 53 % 1031,8 hPa 0,0 l/m 0 min 0 min 37 W/m 6,4 km/h (2 Bft) 97,87 %
14.02.2019 16:34 12,4 C 11,7 C 8,3 C 53 % 1031,8 hPa 0,0 l/m 0 min 0 min 37 W/m 6,4 km/h (2 Bft) 95,74 %
14.02.2019 16:36 12,3 C 11,1 C 8,3 C 54 % 1031,8 hPa 0,0 l/m 0 min 0 min 35 W/m 3,2 km/h (1 Bft) 96,55 %
14.02.2019 16:38 12,3 C 11,1 C 7,8 C 54 % 1031,7 hPa 0,0 l/m 0 min 0 min 33 W/m 3,2 km/h (1 Bft) 100,00 %
14.02.2019 16:40 12,2 C 11,1 C 7,8 C 55 % 1031,7 hPa 0,0 l/m 0 min 0 min 33 W/m 3,2 km/h (1 Bft) 95,74 %
14.02.2019 16:42 12,2 C 11,1 C 7,2 C 56 % 1031,8 hPa 0,0 l/m 0 min 0 min 33 W/m 3,2 km/h (1 Bft) 100,00 %
14.02.2019 16:44 12,2 C 11,1 C 7,2 C 57 % 1031,7 hPa 0,0 l/m 0 min 0 min 33 W/m 3,2 km/h (1 Bft) 100,00 %
14.02.2019 16:46 12,1 C 10,6 C 7,2 C 59 % 1031,8 hPa 0,0 l/m 0 min 0 min 32 W/m 3,2 km/h (1 Bft) 100,00 %
14.02.2019 16:48 12,1 C 10,6 C 6,7 C 59 % 1031,8 hPa 0,0 l/m 0 min 0 min 32 W/m 3,2 km/h (1 Bft) 97,83 %
14.02.2019 16:50 12,0 C 10,0 C 6,7 C 60 % 1031,9 hPa 0,0 l/m 0 min 0 min 32 W/m 3,2 km/h (1 Bft) 100,00 %
14.02.2019 16:52 11,9 C 10,0 C 6,7 C 60 % 1031,9 hPa 0,0 l/m 0 min 0 min 32 W/m 0,0 km/h (0 Bft) 100,00 %
14.02.2019 16:54 11,9 C 10,0 C 6,1 C 61 % 1031,8 hPa 0,0 l/m 0 min 0 min 32 W/m 3,2 km/h (1 Bft) 100,00 %
14.02.2019 16:56 11,8 C 9,4 C 6,1 C 61 % 1031,8 hPa 0,0 l/m 0 min 0 min 31 W/m 0,0 km/h (0 Bft) 97,87 %
14.02.2019 16:58 11,7 C 10,0 C 6,1 C 61 % 1031,8 hPa 0,0 l/m 0 min 0 min 30 W/m 3,2 km/h (1 Bft) 95,74 %
14.02.2019 17:00 11,6 C 10,0 C 6,1 C 60 % 1031,6 hPa 0,0 l/m 0 min 0 min 29 W/m 3,2 km/h (1 Bft) 100,00 %
14.02.2019 17:02 11,5 C 9,4 C 5,6 C 60 % 1031,7 hPa 0,0 l/m 0 min 0 min 28 W/m 3,2 km/h (1 Bft) 97,87 %
14.02.2019 17:04 11,4 C 9,4 C 5,6 C 61 % 1031,6 hPa 0,0 l/m 0 min 0 min 27 W/m 0,0 km/h (0 Bft) 95,74 %
14.02.2019 17:06 11,3 C 8,9 C 5,6 C 62 % 1031,6 hPa 0,0 l/m 0 min 0 min 26 W/m 0,0 km/h (0 Bft) 98,31 %
14.02.2019 17:08 11,2 C 8,9 C 5,6 C 62 % 1031,7 hPa 0,0 l/m 0 min 0 min 25 W/m 3,2 km/h (1 Bft) 97,14 %
14.02.2019 17:10 11,1 C 8,9 C 5,0 C 63 % 1031,7 hPa 0,0 l/m 0 min 0 min 25 W/m 3,2 km/h (1 Bft) 97,87 %
14.02.2019 17:12 11,0 C 8,9 C 5,0 C 62 % 1031,6 hPa 0,0 l/m 0 min 0 min 24 W/m 3,2 km/h (1 Bft) 97,83 %
14.02.2019 17:14 10,9 C 8,9 C 5,0 C 62 % 1031,7 hPa 0,0 l/m 0 min 0 min 23 W/m 3,2 km/h (1 Bft) 97,87 %
14.02.2019 17:16 10,8 C 8,3 C 5,0 C 63 % 1031,6 hPa 0,0 l/m 0 min 0 min 22 W/m 0,0 km/h (0 Bft) 97,87 %
14.02.2019 17:18 10,7 C 8,3 C 5,0 C 63 % 1031,7 hPa 0,0 l/m 0 min 0 min 21 W/m 0,0 km/h (0 Bft) 97,87 %
14.02.2019 17:20 10,6 C 7,8 C 5,0 C 64 % 1031,7 hPa 0,0 l/m 0 min 0 min 20 W/m 0,0 km/h (0 Bft) 97,87 %
14.02.2019 17:22 10,4 C 7,8 C 4,4 C 64 % 1031,7 hPa 0,0 l/m 0 min 0 min 19 W/m 0,0 km/h (0 Bft) 93,48 %
14.02.2019 17:24 10,3 C 7,8 C 4,4 C 65 % 1031,8 hPa 0,0 l/m 0 min 0 min 19 W/m 0,0 km/h (0 Bft) 97,87 %
14.02.2019 17:26 10,2 C 7,8 C 4,4 C 65 % 1031,7 hPa 0,0 l/m 0 min 0 min 18 W/m 0,0 km/h (0 Bft) 95,74 %
14.02.2019 17:28 10,1 C 7,2 C 4,4 C 66 % 1031,6 hPa 0,0 l/m 0 min 0 min 17 W/m 0,0 km/h (0 Bft) 100,00 %
14.02.2019 17:30 9,9 C 7,2 C 4,4 C 66 % 1031,6 hPa 0,0 l/m 0 min 0 min 16 W/m 0,0 km/h (0 Bft) 100,00 %
14.02.2019 17:32 9,8 C 7,2 C 4,4 C 66 % 1031,5 hPa 0,0 l/m 0 min 0 min 15 W/m 0,0 km/h (0 Bft) 97,87 %
14.02.2019 17:34 9,7 C 7,2 C 3,9 C 67 % 1031,5 hPa 0,0 l/m 0 min 0 min 14 W/m 0,0 km/h (0 Bft) 97,83 %
14.02.2019 17:36 9,6 C 6,7 C 3,9 C 67 % 1031,5 hPa 0,0 l/m 0 min 0 min 13 W/m 0,0 km/h (0 Bft) 100,00 %
14.02.2019 17:38 9,4 C 6,7 C 3,9 C 67 % 1031,5 hPa 0,0 l/m 0 min 0 min 12 W/m 0,0 km/h (0 Bft) 100,00 %
14.02.2019 17:40 9,3 C 6,7 C 3,9 C 68 % 1031,5 hPa 0,0 l/m 0 min 0 min 12 W/m 0,0 km/h (0 Bft) 100,00 %
14.02.2019 17:42 9,2 C 6,1 C 3,9 C 68 % 1031,5 hPa 0,0 l/m 0 min 0 min 11 W/m 0,0 km/h (0 Bft) 97,87 %
14.02.2019 17:44 9,1 C 6,1 C 3,9 C 68 % 1031,6 hPa 0,0 l/m 0 min 0 min 10 W/m 0,0 km/h (0 Bft) 97,87 %
14.02.2019 17:46 9,0 C 6,1 C 3,3 C 69 % 1031,6 hPa 0,0 l/m 0 min 0 min 8 W/m 0,0 km/h (0 Bft) 97,83 %
14.02.2019 17:48 8,9 C 6,1 C 3,3 C 69 % 1031,6 hPa 0,0 l/m 0 min 0 min 7 W/m 0,0 km/h (0 Bft) 97,87 %
14.02.2019 17:50 8,8 C 6,1 C 3,3 C 69 % 1031,6 hPa 0,0 l/m 0 min 0 min 5 W/m 0,0 km/h (0 Bft) 95,74 %
14.02.2019 17:52 8,7 C 6,1 C 3,3 C 70 % 1031,6 hPa 0,0 l/m 0 min 0 min 5 W/m 0,0 km/h (0 Bft) 97,87 %
14.02.2019 17:54 8,6 C 6,1 C 3,3 C 70 % 1031,7 hPa 0,0 l/m 0 min 0 min 5 W/m 0,0 km/h (0 Bft) 97,87 %
14.02.2019 17:56 8,5 C 6,1 C 3,3 C 70 % 1031,7 hPa 0,0 l/m 0 min 0 min 5 W/m 0,0 km/h (0 Bft) 97,87 %
14.02.2019 17:58 8,4 C 6,1 C 3,3 C 71 % 1031,6 hPa 0,0 l/m 0 min 0 min 1 W/m 0,0 km/h (0 Bft) 97,83 %
14.02.2019 18:00 8,3 C 5,6 C 3,3 C 71 % 1031,6 hPa 0,0 l/m 0 min 0 min 0 W/m 0,0 km/h (0 Bft) 95,74 %
14.02.2019 18:02 8,2 C 5,6 C 2,8 C 71 % 1031,6 hPa 0,0 l/m 0 min 0 min 0 W/m 0,0 km/h (0 Bft) 97,87 %
14.02.2019 18:04 8,1 C 5,6 C 2,8 C 71 % 1031,6 hPa 0,0 l/m 0 min 0 min 0 W/m 0,0 km/h (0 Bft) 95,74 %
14.02.2019 18:08 7,9 C 5,6 C 2,8 C 72 % 1031,7 hPa 0,0 l/m 0 min 0 min 0 W/m 0,0 km/h (0 Bft) 97,87 %
14.02.2019 18:10 7,8 C 5,0 C 2,8 C 72 % 1031,7 hPa 0,0 l/m 0 min 0 min 0 W/m 0,0 km/h (0 Bft) 97,83 %
14.02.2019 18:12 7,7 C 5,0 C 2,8 C 72 % 1031,7 hPa 0,0 l/m 0 min 0 min 0 W/m 0,0 km/h (0 Bft) 97,87 %
14.02.2019 18:14 7,6 C 5,0 C 2,8 C 73 % 1031,7 hPa 0,0 l/m 0 min 0 min 0 W/m 0,0 km/h (0 Bft) 97,87 %
14.02.2019 18:16 7,6 C 5,0 C 2,2 C 73 % 1031,7 hPa 0,0 l/m 0 min 0 min 0 W/m 0,0 km/h (0 Bft) 95,74 %
14.02.2019 18:18 7,4 C 5,0 C 2,2 C 73 % 1031,7 hPa 0,0 l/m 0 min 0 min 0 W/m 0,0 km/h (0 Bft) 97,87 %
14.02.2019 18:20 7,3 C 4,4 C 2,2 C 73 % 1031,7 hPa 0,0 l/m 0 min 0 min 0 W/m 0,0 km/h (0 Bft) 95,74 %
14.02.2019 18:22 7,2 C 4,4 C 2,2 C 74 % 1031,8 hPa 0,0 l/m 0 min 0 min 0 W/m 0,0 km/h (0 Bft) 97,83 %
14.02.2019 18:24 7,2 C 4,4 C 2,2 C 74 % 1031,7 hPa 0,0 l/m 0 min 0 min 0 W/m 0,0 km/h (0 Bft) 95,74 %
14.02.2019 18:26 7,1 C 4,4 C 2,2 C 74 % 1031,7 hPa 0,0 l/m 0 min 0 min 0 W/m 0,0 km/h (0 Bft) 95,74 %
14.02.2019 18:28 7,0 C 4,4 C 2,2 C 75 % 1031,8 hPa 0,0 l/m 0 min 0 min 0 W/m 0,0 km/h (0 Bft) 91,49 %
14.02.2019 18:30 6,9 C 4,4 C 2,2 C 75 % 1031,8 hPa 0,0 l/m 0 min 0 min 0 W/m 0,0 km/h (0 Bft) 95,74 %
14.02.2019 18:32 6,8 C 4,4 C 2,2 C 75 % 1031,8 hPa 0,0 l/m 0 min 0 min 0 W/m 0,0 km/h (0 Bft) 95,65 %
14.02.2019 18:34 6,7 C 4,4 C 2,2 C 75 % 1031,8 hPa 0,0 l/m 0 min 0 min 0 W/m 0,0 km/h (0 Bft) 93,62 %
14.02.2019 18:36 6,6 C 3,9 C 1,7 C 76 % 1031,8 hPa 0,0 l/m 0 min 0 min 0 W/m 0,0 km/h (0 Bft) 95,74 %
14.02.2019 18:38 6,6 C 3,9 C 1,7 C 76 % 1031,8 hPa 0,0 l/m 0 min 0 min 0 W/m 0,0 km/h (0 Bft) 95,74 %
14.02.2019 18:40 6,4 C 3,9 C 1,7 C 76 % 1031,7 hPa 0,0 l/m 0 min 0 min 0 W/m 0,0 km/h (0 Bft) 95,74 %
14.02.2019 18:42 6,4 C 3,9 C 1,7 C 76 % 1031,8 hPa 0,0 l/m 0 min 0 min 0 W/m 0,0 km/h (0 Bft) 95,74 %
14.02.2019 18:44 6,3 C 3,9 C 1,7 C 76 % 1031,8 hPa 0,0 l/m 0 min 0 min 0 W/m 0,0 km/h (0 Bft) 93,48 %
14.02.2019 18:46 6,2 C 3,9 C 1,7 C 76 % 1031,8 hPa 0,0 l/m 0 min 0 min 0 W/m 0,0 km/h (0 Bft) 95,74 %
14.02.2019 18:48 6,1 C 3,9 C 1,7 C 77 % 1031,8 hPa 0,0 l/m 0 min 0 min 0 W/m 0,0 km/h (0 Bft) 95,74 %
14.02.2019 18:50 6,1 C 3,3 C 1,7 C 77 % 1031,7 hPa 0,0 l/m 0 min 0 min 0 W/m 0,0 km/h (0 Bft) 97,87 %
14.02.2019 18:52 6,0 C 3,3 C 1,7 C 77 % 1031,7 hPa 0,0 l/m 0 min 0 min 0 W/m 0,0 km/h (0 Bft) 95,74 %
14.02.2019 18:54 5,9 C 3,3 C 1,7 C 77 % 1031,7 hPa 0,0 l/m 0 min 0 min 0 W/m 0,0 km/h (0 Bft) 97,87 %
14.02.2019 18:56 5,8 C 3,3 C 1,7 C 78 % 1031,7 hPa 0,0 l/m 0 min 0 min 0 W/m 0,0 km/h (0 Bft) 100,00 %
14.02.2019 18:58 5,8 C 3,3 C 1,7 C 78 % 1031,8 hPa 0,0 l/m 0 min 0 min 0 W/m 0,0 km/h (0 Bft) 100,00 %
14.02.2019 19:00 5,7 C 3,3 C 1,1 C 78 % 1031,8 hPa 0,0 l/m 0 min 0 min 0 W/m 0,0 km/h (0 Bft) 95,74 %
14.02.2019 19:02 5,6 C 3,3 C 1,1 C 78 % 1031,8 hPa 0,0 l/m 0 min 0 min 0 W/m 0,0 km/h (0 Bft) 100,00 %
14.02.2019 19:04 5,6 C 3,3 C 1,1 C 78 % 1031,9 hPa 0,0 l/m 0 min 0 min 0 W/m 0,0 km/h (0 Bft) 97,87 %
14.02.2019 19:06 5,5 C 3,3 C 1,1 C 78 % 1031,8 hPa 0,0 l/m 0 min 0 min 0 W/m 0,0 km/h (0 Bft) 100,00 %
14.02.2019 19:08 5,4 C 3,3 C 1,1 C 78 % 1031,8 hPa 0,0 l/m 0 min 0 min 0 W/m 0,0 km/h (0 Bft) 100,00 %
14.02.2019 19:10 5,4 C 2,8 C 1,1 C 78 % 1031,7 hPa 0,0 l/m 0 min 0 min 0 W/m 0,0 km/h (0 Bft) 100,00 %
14.02.2019 19:12 5,3 C 2,8 C 1,1 C 78 % 1031,7 hPa 0,0 l/m 0 min 0 min 0 W/m 0,0 km/h (0 Bft) 97,87 %
14.02.2019 19:14 5,2 C 2,8 C 1,1 C 79 % 1031,7 hPa 0,0 l/m 0 min 0 min 0 W/m 0,0 km/h (0 Bft) 97,87 %
14.02.2019 19:16 5,2 C 2,8 C 1,1 C 79 % 1031,8 hPa 0,0 l/m 0 min 0 min 0 W/m 3,2 km/h (1 Bft) 100,00 %
14.02.2019 19:18 5,1 C 2,8 C 1,1 C 79 % 1031,8 hPa 0,0 l/m 0 min 0 min 0 W/m 3,2 km/h (1 Bft) 100,00 %
14.02.2019 19:20 5,1 C 2,8 C 1,1 C 79 % 1031,8 hPa 0,0 l/m 0 min 0 min 0 W/m 0,0 km/h (0 Bft) 100,00 %
14.02.2019 19:22 5,0 C 2,8 C 1,1 C 79 % 1031,8 hPa 0,0 l/m 0 min 0 min 0 W/m 0,0 km/h (0 Bft) 97,87 %
14.02.2019 19:24 4,9 C 2,8 C 1,1 C 79 % 1031,8 hPa 0,0 l/m 0 min 0 min 0 W/m 3,2 km/h (1 Bft) 100,00 %
14.02.2019 19:26 4,9 C 2,8 C 1,1 C 80 % 1031,8 hPa 0,0 l/m 0 min 0 min 0 W/m 3,2 km/h (1 Bft) 100,00 %
14.02.2019 19:28 4,8 C 2,8 C 1,1 C 79 % 1031,8 hPa 0,0 l/m 0 min 0 min 0 W/m 0,0 km/h (0 Bft) 100,00 %
14.02.2019 19:30 4,8 C 2,8 C 1,1 C 80 % 1031,8 hPa 0,0 l/m 0 min 0 min 0 W/m 3,2 km/h (1 Bft) 100,00 %
14.02.2019 19:32 4,7 C 2,8 C 1,1 C 80 % 1031,8 hPa 0,0 l/m 0 min 0 min 0 W/m 3,2 km/h (1 Bft) 100,00 %
14.02.2019 19:34 4,7 C 2,8 C 1,1 C 80 % 1031,8 hPa 0,0 l/m 0 min 0 min 0 W/m 3,2 km/h (1 Bft) 100,00 %
14.02.2019 19:36 4,6 C 2,8 C 1,1 C 80 % 1031,8 hPa 0,0 l/m 0 min 0 min 0 W/m 0,0 km/h (0 Bft) 96,61 %
14.02.2019 19:38 4,6 C 2,8 C 1,1 C 80 % 1031,7 hPa 0,0 l/m 0 min 0 min 0 W/m 3,2 km/h (1 Bft) 97,14 %
14.02.2019 19:40 4,5 C 2,8 C 1,1 C 80 % 1031,8 hPa 0,0 l/m 0 min 0 min 0 W/m 3,2 km/h (1 Bft) 97,87 %
14.02.2019 19:42 4,5 C 2,8 C 0,6 C 80 % 1031,8 hPa 0,0 l/m 0 min 0 min 0 W/m 3,2 km/h (1 Bft) 100,00 %
14.02.2019 19:44 4,4 C 2,8 C 0,6 C 80 % 1031,8 hPa 0,0 l/m 0 min 0 min 0 W/m 3,2 km/h (1 Bft) 97,87 %
14.02.2019 19:46 4,4 C 2,8 C 0,6 C 80 % 1031,7 hPa 0,0 l/m 0 min 0 min 0 W/m 0,0 km/h (0 Bft) 100,00 %
14.02.2019 19:48 4,3 C 2,8 C 0,6 C 80 % 1031,7 hPa 0,0 l/m 0 min 0 min 0 W/m 3,2 km/h (1 Bft) 97,87 %
14.02.2019 19:50 4,3 C 2,8 C 0,6 C 80 % 1031,8 hPa 0,0 l/m 0 min 0 min 0 W/m 6,4 km/h (2 Bft) 97,87 %
14.02.2019 19:52 4,2 C 3,3 C 0,6 C 80 % 1031,8 hPa 0,0 l/m 0 min 0 min 0 W/m 3,2 km/h (1 Bft) 95,74 %
14.02.2019 19:54 4,2 C 3,3 C 0,6 C 80 % 1031,7 hPa 0,0 l/m 0 min 0 min 0 W/m 3,2 km/h (1 Bft) 97,83 %
14.02.2019 19:56 4,2 C 3,3 C 0,6 C 80 % 1031,7 hPa 0,0 l/m 0 min 0 min 0 W/m 0,0 km/h (0 Bft) 95,74 %
14.02.2019 19:58 4,1 C 2,8 C 0,6 C 80 % 1031,8 hPa 0,0 l/m 0 min 0 min 0 W/m 3,2 km/h (1 Bft) 97,87 %
14.02.2019 20:00 4,1 C 2,8 C 0,6 C 81 % 1031,7 hPa 0,0 l/m 0 min 0 min 0 W/m 3,2 km/h (1 Bft) 95,74 %
14.02.2019 20:02 4,0 C 2,8 C 0,6 C 81 % 1031,7 hPa 0,0 l/m 0 min 0 min 0 W/m 3,2 km/h (1 Bft) 97,87 %
14.02.2019 20:04 4,0 C 2,8 C 0,6 C 81 % 1031,7 hPa 0,0 l/m 0 min 0 min 0 W/m 3,2 km/h (1 Bft) 95,74 %
14.02.2019 20:06 3,9 C 3,9 C 0,6 C 81 % 1031,7 hPa 0,0 l/m 0 min 0 min 0 W/m 3,2 km/h (1 Bft) 95,65 %
14.02.2019 20:08 3,9 C 4,4 C 0,6 C 81 % 1031,8 hPa 0,0 l/m 0 min 0 min 0 W/m 6,4 km/h (2 Bft) 97,87 %
14.02.2019 20:10 3,9 C 5,0 C 1,1 C 80 % 1031,6 hPa 0,0 l/m 0 min 0 min 0 W/m 6,4 km/h (2 Bft) 95,74 %
14.02.2019 20:12 3,8 C 5,0 C 1,1 C 80 % 1031,6 hPa 0,0 l/m 0 min 0 min 0 W/m 3,2 km/h (1 Bft) 97,87 %
14.02.2019 20:14 3,8 C 5,6 C 1,1 C 79 % 1031,6 hPa 0,0 l/m 0 min 0 min 0 W/m 6,4 km/h (2 Bft) 97,87 %
14.02.2019 20:16 3,8 C 5,0 C 1,1 C 79 % 1031,6 hPa 0,0 l/m 0 min 0 min 0 W/m 3,2 km/h (1 Bft) 97,87 %
14.02.2019 20:18 3,8 C 5,0 C 1,1 C 79 % 1031,7 hPa 0,0 l/m 0 min 0 min 0 W/m 3,2 km/h (1 Bft) 97,83 %
14.02.2019 20:20 3,8 C 5,0 C 1,1 C 78 % 1031,7 hPa 0,0 l/m 0 min 0 min 0 W/m 6,4 km/h (2 Bft) 97,87 %
14.02.2019 20:22 3,9 C 5,6 C 1,1 C 78 % 1031,7 hPa 0,0 l/m 0 min 0 min 0 W/m 6,4 km/h (2 Bft) 97,87 %
14.02.2019 20:24 3,9 C 5,6 C 1,1 C 77 % 1031,7 hPa 0,0 l/m 0 min 0 min 0 W/m 3,2 km/h (1 Bft) 97,87 %
14.02.2019 20:26 3,9 C 5,0 C 1,1 C 77 % 1031,6 hPa 0,0 l/m 0 min 0 min 0 W/m 3,2 km/h (1 Bft) 97,87 %
14.02.2019 20:28 4,0 C 4,4 C 1,1 C 76 % 1031,6 hPa 0,0 l/m 0 min 0 min 0 W/m 3,2 km/h (1 Bft) 97,83 %
14.02.2019 20:30 4,0 C 4,4 C 1,1 C 76 % 1031,6 hPa 0,0 l/m 0 min 0 min 0 W/m 3,2 km/h (1 Bft) 97,87 %
14.02.2019 20:32 4,0 C 3,9 C 1,1 C 76 % 1031,6 hPa 0,0 l/m 0 min 0 min 0 W/m 0,0 km/h (0 Bft) 97,87 %
14.02.2019 20:34 4,1 C 3,9 C 1,1 C 76 % 1031,6 hPa 0,0 l/m 0 min 0 min 0 W/m 0,0 km/h (0 Bft) 97,87 %
14.02.2019 20:36 4,1 C 3,9 C 1,1 C 76 % 1031,6 hPa 0,0 l/m 0 min 0 min 0 W/m 0,0 km/h (0 Bft) 97,87 %
14.02.2019 20:38 4,1 C 3,9 C 0,6 C 76 % 1031,6 hPa 0,0 l/m 0 min 0 min 0 W/m 3,2 km/h (1 Bft) 97,87 %
14.02.2019 20:40 4,2 C 3,9 C 0,6 C 75 % 1031,6 hPa 0,0 l/m 0 min 0 min 0 W/m 3,2 km/h (1 Bft) 97,83 %
14.02.2019 20:42 4,2 C 4,4 C 0,6 C 75 % 1031,6 hPa 0,0 l/m 0 min 0 min 0 W/m 6,4 km/h (2 Bft) 97,87 %
14.02.2019 20:44 4,2 C 4,4 C 0,6 C 75 % 1031,6 hPa 0,0 l/m 0 min 0 min 0 W/m 6,4 km/h (2 Bft) 97,87 %
14.02.2019 20:46 4,2 C 4,4 C 0,6 C 74 % 1031,6 hPa 0,0 l/m 0 min 0 min 0 W/m 6,4 km/h (2 Bft) 97,87 %
14.02.2019 20:48 4,2 C 4,4 C 0,6 C 74 % 1031,6 hPa 0,0 l/m 0 min 0 min 0 W/m 3,2 km/h (1 Bft) 97,87 %
14.02.2019 20:50 4,2 C 3,9 C 0,6 C 74 % 1031,7 hPa 0,0 l/m 0 min 0 min 0 W/m 3,2 km/h (1 Bft) 97,87 %
14.02.2019 20:52 4,2 C 3,9 C 0,6 C 74 % 1031,7 hPa 0,0 l/m 0 min 0 min 0 W/m 0,0 km/h (0 Bft) 97,83 %
14.02.2019 20:54 4,2 C 3,3 C 0,6 C 74 % 1031,7 hPa 0,0 l/m 0 min 0 min 0 W/m 0,0 km/h (0 Bft) 97,87 %
14.02.2019 20:56 4,3 C 3,3 C 0,6 C 74 % 1031,6 hPa 0,0 l/m 0 min 0 min 0 W/m 0,0 km/h (0 Bft) 97,87 %
14.02.2019 20:58 4,3 C 2,8 C 0,6 C 74 % 1031,6 hPa 0,0 l/m 0 min 0 min 0 W/m 3,2 km/h (1 Bft) 95,74 %
14.02.2019 21:00 4,2 C 2,8 C 0,6 C 74 % 1031,6 hPa 0,0 l/m 0 min 0 min 0 W/m 0,0 km/h (0 Bft) 97,87 %
14.02.2019 21:02 4,2 C 3,3 C 0,6 C 74 % 1031,6 hPa 0,0 l/m 0 min 0 min 0 W/m 6,4 km/h (2 Bft) 93,62 %
14.02.2019 21:04 4,2 C 3,9 C 0,6 C 74 % 1031,6 hPa 0,0 l/m 0 min 0 min 0 W/m 6,4 km/h (2 Bft) 97,83 %
14.02.2019 21:06 4,2 C 3,9 C 0,6 C 74 % 1031,5 hPa 0,0 l/m 0 min 0 min 0 W/m 3,2 km/h (1 Bft) 96,61 %
14.02.2019 21:08 4,2 C 3,9 C 0,0 C 74 % 1031,5 hPa 0,0 l/m 0 min 0 min 0 W/m 3,2 km/h (1 Bft) 100,00 %
14.02.2019 21:10 4,2 C 3,9 C 0,0 C 73 % 1031,5 hPa 0,0 l/m 0 min 0 min 0 W/m 3,2 km/h (1 Bft) 95,74 %
14.02.2019 21:12 4,2 C 4,4 C 0,0 C 73 % 1031,5 hPa 0,0 l/m 0 min 0 min 0 W/m 3,2 km/h (1 Bft) 97,87 %
14.02.2019 21:14 4,2 C 4,4 C 0,6 C 73 % 1031,5 hPa 0,0 l/m 0 min 0 min 0 W/m 3,2 km/h (1 Bft) 100,00 %
14.02.2019 21:16 4,2 C 5,0 C 0,6 C 72 % 1031,5 hPa 0,0 l/m 0 min 0 min 0 W/m 6,4 km/h (2 Bft) 97,83 %
14.02.2019 21:18 4,2 C 5,6 C 0,6 C 72 % 1031,5 hPa 0,0 l/m 0 min 0 min 0 W/m 6,4 km/h (2 Bft) 97,87 %
14.02.2019 21:20 4,2 C 5,6 C 0,6 C 72 % 1031,5 hPa 0,0 l/m 0 min 0 min 0 W/m 3,2 km/h (1 Bft) 95,74 %
14.02.2019 21:22 4,2 C 6,1 C 1,7 C 71 % 1031,5 hPa 0,0 l/m 0 min 0 min 0 W/m 6,4 km/h (2 Bft) 97,87 %
14.02.2019 21:24 4,3 C 6,1 C 1,7 C 71 % 1031,5 hPa 0,0 l/m 0 min 0 min 0 W/m 9,7 km/h (2 Bft) 97,87 %
14.02.2019 21:26 4,4 C 6,1 C 2,2 C 71 % 1031,5 hPa 0,0 l/m 0 min 0 min 0 W/m 9,7 km/h (2 Bft) 95,74 %
14.02.2019 21:28 4,5 C 6,1 C 2,8 C 70 % 1031,5 hPa 0,0 l/m 0 min 0 min 0 W/m 9,7 km/h (2 Bft) 93,48 %
14.02.2019 21:30 4,6 C 6,7 C 3,3 C 70 % 1031,5 hPa 0,0 l/m 0 min 0 min 0 W/m 19,3 km/h (3 Bft) 95,74 %
14.02.2019 21:32 4,8 C 6,7 C 3,9 C 69 % 1031,5 hPa 0,0 l/m 0 min 0 min 0 W/m 12,9 km/h (3 Bft) 95,74 %
14.02.2019 21:34 4,9 C 6,7 C 4,4 C 69 % 1031,5 hPa 0,0 l/m 0 min 0 min 0 W/m 9,7 km/h (2 Bft) 95,74 %
14.02.2019 21:36 5,1 C 6,7 C 4,4 C 68 % 1031,6 hPa 0,0 l/m 0 min 0 min 0 W/m 9,7 km/h (2 Bft) 93,62 %
14.02.2019 21:38 5,3 C 6,7 C 4,4 C 68 % 1031,5 hPa 0,0 l/m 0 min 0 min 0 W/m 19,3 km/h (3 Bft) 95,74 %
14.02.2019 21:40 5,4 C 6,7 C 5,0 C 68 % 1031,5 hPa 0,0 l/m 0 min 0 min 0 W/m 12,9 km/h (3 Bft) 95,65 %
14.02.2019 21:42 5,7 C 6,7 C 5,0 C 67 % 1031,5 hPa 0,0 l/m 0 min 0 min 0 W/m 16,1 km/h (3 Bft) 95,74 %
14.02.2019 21:44 5,8 C 6,7 C 5,0 C 67 % 1031,5 hPa 0,0 l/m 0 min 0 min 0 W/m 12,9 km/h (3 Bft) 93,62 %
14.02.2019 21:46 5,9 C 6,7 C 5,0 C 66 % 1031,5 hPa 0,0 l/m 0 min 0 min 0 W/m 9,7 km/h (2 Bft) 91,49 %
14.02.2019 21:48 6,0 C 6,7 C 5,0 C 66 % 1031,5 hPa 0,0 l/m 0 min 0 min 0 W/m 9,7 km/h (2 Bft) 97,87 %
14.02.2019 21:50 6,1 C 6,7 C 5,0 C 66 % 1031,5 hPa 0,0 l/m 0 min 0 min 0 W/m 12,9 km/h (3 Bft) 95,65 %
14.02.2019 21:52 6,2 C 6,7 C 5,0 C 66 % 1031,5 hPa 0,0 l/m 0 min 0 min 0 W/m 12,9 km/h (3 Bft) 97,87 %
14.02.2019 21:54 6,3 C 6,7 C 5,0 C 65 % 1031,5 hPa 0,0 l/m 0 min 0 min 0 W/m 9,7 km/h (2 Bft) 97,87 %
14.02.2019 21:56 6,3 C 6,7 C 5,0 C 65 % 1031,5 hPa 0,0 l/m 0 min 0 min 0 W/m 9,7 km/h (2 Bft) 97,87 %
14.02.2019 21:58 6,4 C 6,7 C 5,0 C 65 % 1031,4 hPa 0,0 l/m 0 min 0 min 0 W/m 6,4 km/h (2 Bft) 97,87 %
14.02.2019 22:00 6,4 C 6,7 C 5,0 C 65 % 1031,4 hPa 0,0 l/m 0 min 0 min 0 W/m 12,9 km/h (3 Bft) 97,87 %
14.02.2019 22:02 6,5 C 6,1 C 5,0 C 65 % 1031,4 hPa 0,0 l/m 0 min 0 min 0 W/m 9,7 km/h (2 Bft) 95,65 %
14.02.2019 22:04 6,6 C 6,1 C 5,0 C 65 % 1031,4 hPa 0,0 l/m 0 min 0 min 0 W/m 9,7 km/h (2 Bft) 97,87 %
14.02.2019 22:06 6,6 C 6,1 C 5,0 C 65 % 1031,4 hPa 0,0 l/m 0 min 0 min 0 W/m 6,4 km/h (2 Bft) 100,00 %
14.02.2019 22:08 6,6 C 6,1 C 5,0 C 65 % 1031,4 hPa 0,0 l/m 0 min 0 min 0 W/m 9,7 km/h (2 Bft) 100,00 %
14.02.2019 22:10 6,6 C 6,1 C 5,0 C 65 % 1031,5 hPa 0,0 l/m 0 min 0 min 0 W/m 9,7 km/h (2 Bft) 97,87 %
14.02.2019 22:12 6,6 C 6,1 C 5,0 C 65 % 1031,4 hPa 0,0 l/m 0 min 0 min 0 W/m 9,7 km/h (2 Bft) 97,87 %
14.02.2019 22:14 6,7 C 6,1 C 5,0 C 65 % 1031,4 hPa 0,0 l/m 0 min 0 min 0 W/m 16,1 km/h (3 Bft) 100,00 %
14.02.2019 22:16 6,7 C 6,1 C 5,0 C 65 % 1031,4 hPa 0,0 l/m 0 min 0 min 0 W/m 16,1 km/h (3 Bft) 100,00 %
14.02.2019 22:18 6,7 C 6,1 C 5,0 C 65 % 1031,4 hPa 0,0 l/m 0 min 0 min 0 W/m 9,7 km/h (2 Bft) 100,00 %
14.02.2019 22:20 6,7 C 6,1 C 5,0 C 65 % 1031,4 hPa 0,0 l/m 0 min 0 min 0 W/m 16,1 km/h (3 Bft) 97,87 %
14.02.2019 22:22 6,7 C 6,1 C 5,0 C 65 % 1031,4 hPa 0,0 l/m 0 min 0 min 0 W/m 12,9 km/h (3 Bft) 97,87 %
14.02.2019 22:24 6,7 C 6,1 C 5,0 C 65 % 1031,4 hPa 0,0 l/m 0 min 0 min 0 W/m 12,9 km/h (3 Bft) 100,00 %
14.02.2019 22:26 6,7 C 6,1 C 5,0 C 65 % 1031,4 hPa 0,0 l/m 0 min 0 min 0 W/m 16,1 km/h (3 Bft) 100,00 %
14.02.2019 22:28 6,7 C 6,1 C 5,0 C 65 % 1031,4 hPa 0,0 l/m 0 min 0 min 0 W/m 9,7 km/h (2 Bft) 100,00 %
14.02.2019 22:30 6,7 C 6,1 C 5,0 C 65 % 1031,4 hPa 0,0 l/m 0 min 0 min 0 W/m 12,9 km/h (3 Bft) 100,00 %
14.02.2019 22:32 6,7 C 6,1 C 5,0 C 65 % 1031,4 hPa 0,0 l/m 0 min 0 min 0 W/m 12,9 km/h (3 Bft) 100,00 %
14.02.2019 22:34 6,7 C 6,1 C 5,0 C 65 % 1031,4 hPa 0,0 l/m 0 min 0 min 0 W/m 12,9 km/h (3 Bft) 97,87 %
14.02.2019 22:36 6,7 C 6,1 C 5,0 C 65 % 1031,3 hPa 0,0 l/m 0 min 0 min 0 W/m 9,7 km/h (2 Bft) 100,00 %
14.02.2019 22:38 6,7 C 6,1 C 5,0 C 65 % 1031,2 hPa 0,0 l/m 0 min 0 min 0 W/m 9,7 km/h (2 Bft) 100,00 %
14.02.2019 22:40 6,7 C 6,1 C 4,4 C 65 % 1031,3 hPa 0,0 l/m 0 min 0 min 0 W/m 9,7 km/h (2 Bft) 100,00 %
14.02.2019 22:42 6,7 C 6,1 C 4,4 C 65 % 1031,3 hPa 0,0 l/m 0 min 0 min 0 W/m 12,9 km/h (3 Bft) 100,00 %
14.02.2019 22:44 6,7 C 6,1 C 4,4 C 65 % 1031,3 hPa 0,0 l/m 0 min 0 min 0 W/m 16,1 km/h (3 Bft) 100,00 %
14.02.2019 22:46 6,7 C 5,6 C 5,0 C 65 % 1031,3 hPa 0,0 l/m 0 min 0 min 0 W/m 9,7 km/h (2 Bft) 100,00 %
14.02.2019 22:48 6,6 C 5,6 C 4,4 C 66 % 1031,3 hPa 0,0 l/m 0 min 0 min 0 W/m 9,7 km/h (2 Bft) 100,00 %
14.02.2019 22:50 6,6 C 5,6 C 4,4 C 66 % 1031,2 hPa 0,0 l/m 0 min 0 min 0 W/m 12,9 km/h (3 Bft) 97,87 %
14.02.2019 22:52 6,6 C 5,6 C 4,4 C 66 % 1031,4 hPa 0,0 l/m 0 min 0 min 0 W/m 12,9 km/h (3 Bft) 100,00 %
14.02.2019 22:54 6,6 C 5,6 C 4,4 C 66 % 1031,4 hPa 0,0 l/m 0 min 0 min 0 W/m 12,9 km/h (3 Bft) 100,00 %
14.02.2019 22:56 6,5 C 5,6 C 4,4 C 66 % 1031,3 hPa 0,0 l/m 0 min 0 min 0 W/m 9,7 km/h (2 Bft) 100,00 %
14.02.2019 22:58 6,5 C 5,6 C 4,4 C 66 % 1031,3 hPa 0,0 l/m 0 min 0 min 0 W/m 6,4 km/h (2 Bft) 100,00 %
14.02.2019 23:00 6,4 C 5,6 C 4,4 C 66 % 1031,4 hPa 0,0 l/m 0 min 0 min 0 W/m 9,7 km/h (2 Bft) 100,00 %
14.02.2019 23:02 6,4 C 5,6 C 4,4 C 66 % 1031,4 hPa 0,0 l/m 0 min 0 min 0 W/m 9,7 km/h (2 Bft) 100,00 %
14.02.2019 23:04 6,4 C 5,6 C 4,4 C 66 % 1031,3 hPa 0,0 l/m 0 min 0 min 0 W/m 9,7 km/h (2 Bft) 100,00 %
14.02.2019 23:06 6,4 C 5,6 C 4,4 C 66 % 1031,3 hPa 0,0 l/m 0 min 0 min 0 W/m 16,1 km/h (3 Bft) 97,87 %
14.02.2019 23:08 6,4 C 5,6 C 4,4 C 66 % 1031,4 hPa 0,0 l/m 0 min 0 min 0 W/m 12,9 km/h (3 Bft) 100,00 %
14.02.2019 23:10 6,4 C 5,6 C 4,4 C 66 % 1031,4 hPa 0,0 l/m 0 min 0 min 0 W/m 9,7 km/h (2 Bft) 100,00 %
14.02.2019 23:12 6,3 C 5,6 C 4,4 C 66 % 1031,3 hPa 0,0 l/m 0 min 0 min 0 W/m 6,4 km/h (2 Bft) 100,00 %
14.02.2019 23:14 6,3 C 5,6 C 3,9 C 67 % 1031,3 hPa 0,0 l/m 0 min 0 min 0 W/m 6,4 km/h (2 Bft) 100,00 %
14.02.2019 23:16 6,3 C 5,6 C 3,9 C 67 % 1031,3 hPa 0,0 l/m 0 min 0 min 0 W/m 12,9 km/h (3 Bft) 100,00 %
14.02.2019 23:18 6,3 C 5,6 C 3,9 C 67 % 1031,3 hPa 0,0 l/m 0 min 0 min 0 W/m 9,7 km/h (2 Bft) 97,87 %
14.02.2019 23:20 6,2 C 5,6 C 4,4 C 67 % 1031,3 hPa 0,0 l/m 0 min 0 min 0 W/m 9,7 km/h (2 Bft) 97,87 %
14.02.2019 23:22 6,2 C 5,6 C 3,9 C 67 % 1031,3 hPa 0,0 l/m 0 min 0 min 0 W/m 6,4 km/h (2 Bft) 100,00 %
14.02.2019 23:24 6,2 C 5,0 C 3,9 C 67 % 1031,3 hPa 0,0 l/m 0 min 0 min 0 W/m 12,9 km/h (3 Bft) 97,83 %
14.02.2019 23:26 6,1 C 5,0 C 3,9 C 67 % 1031,4 hPa 0,0 l/m 0 min 0 min 0 W/m 9,7 km/h (2 Bft) 97,87 %
14.02.2019 23:28 6,1 C 5,0 C 3,9 C 67 % 1031,4 hPa 0,0 l/m 0 min 0 min 0 W/m 9,7 km/h (2 Bft) 91,49 %
14.02.2019 23:30 6,1 C 5,0 C 3,9 C 67 % 1031,4 hPa 0,0 l/m 0 min 0 min 0 W/m 9,7 km/h (2 Bft) 97,87 %
14.02.2019 23:32 6,1 C 5,0 C 3,9 C 68 % 1031,4 hPa 0,0 l/m 0 min 0 min 0 W/m 6,4 km/h (2 Bft) 97,87 %
14.02.2019 23:34 6,0 C 5,0 C 3,9 C 68 % 1031,4 hPa 0,0 l/m 0 min 0 min 0 W/m 9,7 km/h (2 Bft) 95,74 %
14.02.2019 23:36 6,0 C 5,0 C 3,9 C 68 % 1031,4 hPa 0,0 l/m 0 min 0 min 0 W/m 6,4 km/h (2 Bft) 95,65 %
14.02.2019 23:38 5,9 C 5,0 C 3,9 C 68 % 1031,4 hPa 0,0 l/m 0 min 0 min 0 W/m 9,7 km/h (2 Bft) 93,62 %
14.02.2019 23:40 5,9 C 5,0 C 3,9 C 68 % 1031,4 hPa 0,0 l/m 0 min 0 min 0 W/m 6,4 km/h (2 Bft) 95,74 %
14.02.2019 23:42 5,9 C 5,0 C 3,9 C 68 % 1031,4 hPa 0,0 l/m 0 min 0 min 0 W/m 9,7 km/h (2 Bft) 95,74 %
14.02.2019 23:44 5,9 C 5,0 C 3,9 C 68 % 1031,5 hPa 0,0 l/m 0 min 0 min 0 W/m 9,7 km/h (2 Bft) 95,74 %
14.02.2019 23:46 5,8 C 5,0 C 3,9 C 69 % 1031,5 hPa 0,0 l/m 0 min 0 min 0 W/m 6,4 km/h (2 Bft) 95,74 %
14.02.2019 23:48 5,8 C 4,4 C 3,3 C 69 % 1031,5 hPa 0,0 l/m 0 min 0 min 0 W/m 6,4 km/h (2 Bft) 95,65 %
14.02.2019 23:50 5,8 C 4,4 C 3,3 C 69 % 1031,5 hPa 0,0 l/m 0 min 0 min 0 W/m 9,7 km/h (2 Bft) 95,74 %
14.02.2019 23:52 5,7 C 4,4 C 3,3 C 69 % 1031,4 hPa 0,0 l/m 0 min 0 min 0 W/m 6,4 km/h (2 Bft) 93,62 %
14.02.2019 23:54 5,7 C 4,4 C 3,3 C 69 % 1031,4 hPa 0,0 l/m 0 min 0 min 0 W/m 6,4 km/h (2 Bft) 95,74 %
14.02.2019 23:56 5,7 C 4,4 C 3,3 C 69 % 1031,4 hPa 0,0 l/m 0 min 0 min 0 W/m 6,4 km/h (2 Bft) 95,74 %
14.02.2019 23:58 5,6 C 4,4 C 3,3 C 69 % 1031,4 hPa 0,0 l/m 0 min 0 min 0 W/m 9,7 km/h (2 Bft) 93,62 %
_ Min-Zeit 07:12 05:56 05:40 14:38 22:38 - - - - 00:20 07:14
Minimum _ 0,6 C 0,0 C -0,6 C 51 % 1031,2 hPa - - - - 0,0 km/h (0 Bft) 78,26 %
_ Max-Zeit 14:56 14:14 12:38 02:24 08:28 00:00 12:08 00:00 12:56 09:20 00:40
Maximum _ 12,7 C 18,3 C 15,6 C 92 % 1034,4 hPa 0,0 l/m 4 min 0 min 579 W/m 22,5 km/h
O (4 Bft)
100,00 %
Durchschnitt _ 5,3 C 5,8 C 3,6 C 77 % 1032,9 hPa #0,0 l/m #6:42 h #0 min. 239 W/m 9,2 km/h (2 Bft) 97,50 %
© 2019 W. Hausmann